<?xml version="1.0" encoding="UTF-8" standalone="no" ?>
<gpx xmlns="http://www.topografix.com/GPX/1/1" xmlns:xsi="http://www.w3.org/2001/XMLSchema-instance" xsi:schemaLocation="http://www.topografix.com/GPX/1/1 http://www.topografix.com/GPX/1/1/gpx.xsd" version="1.1" creator="VisuGPX - https://www.visugpx.com">
  <metadata>
    <name>pene d'escalere </name>
    <desc><![CDATA[ski de rando caf toulouse pene d'escalere
]]></desc>
  </metadata>
  <trk>
    <name><![CDATA[pene d'escalere ]]></name>
    <cmt><![CDATA[10 avr. 2016 08:39:29]]></cmt>
    <trkseg>
      <trkpt lat="42.90801" lon="0.27913">
        <ele>1442</ele>
        <time>2016-04-10T06:39:30Z</time>
      </trkpt>
      <trkpt lat="42.90798" lon="0.27908">
        <ele>1440</ele>
        <time>2016-04-10T06:40:16Z</time>
      </trkpt>
      <trkpt lat="42.90794" lon="0.27904">
        <ele>1440</ele>
        <time>2016-04-10T06:40:22Z</time>
      </trkpt>
      <trkpt lat="42.90788" lon="0.27885">
        <ele>1440</ele>
        <time>2016-04-10T06:40:36Z</time>
      </trkpt>
      <trkpt lat="42.90773" lon="0.27845">
        <ele>1442</ele>
        <time>2016-04-10T06:41:09Z</time>
      </trkpt>
      <trkpt lat="42.90763" lon="0.27831">
        <ele>1444</ele>
        <time>2016-04-10T06:41:28Z</time>
      </trkpt>
      <trkpt lat="42.90762" lon="0.27838">
        <ele>1445</ele>
        <time>2016-04-10T06:41:35Z</time>
      </trkpt>
      <trkpt lat="42.90757" lon="0.27837">
        <ele>1446</ele>
        <time>2016-04-10T06:41:41Z</time>
      </trkpt>
      <trkpt lat="42.90735" lon="0.27822">
        <ele>1452</ele>
        <time>2016-04-10T06:42:12Z</time>
      </trkpt>
      <trkpt lat="42.90731" lon="0.27819">
        <ele>1453</ele>
        <time>2016-04-10T06:42:17Z</time>
      </trkpt>
      <trkpt lat="42.90707" lon="0.27819">
        <ele>1459</ele>
        <time>2016-04-10T06:42:48Z</time>
      </trkpt>
      <trkpt lat="42.90685" lon="0.27815">
        <ele>1465</ele>
        <time>2016-04-10T06:43:20Z</time>
      </trkpt>
      <trkpt lat="42.9066" lon="0.27807">
        <ele>1472</ele>
        <time>2016-04-10T06:43:54Z</time>
      </trkpt>
      <trkpt lat="42.90646" lon="0.27802">
        <ele>1475</ele>
        <time>2016-04-10T06:44:14Z</time>
      </trkpt>
      <trkpt lat="42.90634" lon="0.27803">
        <ele>1477</ele>
        <time>2016-04-10T06:44:34Z</time>
      </trkpt>
      <trkpt lat="42.90627" lon="0.27794">
        <ele>1480</ele>
        <time>2016-04-10T06:44:45Z</time>
      </trkpt>
      <trkpt lat="42.90625" lon="0.27788">
        <ele>1481</ele>
        <time>2016-04-10T06:44:50Z</time>
      </trkpt>
      <trkpt lat="42.90622" lon="0.27787">
        <ele>1481</ele>
        <time>2016-04-10T06:44:57Z</time>
      </trkpt>
      <trkpt lat="42.9062" lon="0.27793">
        <ele>1482</ele>
        <time>2016-04-10T06:45:03Z</time>
      </trkpt>
      <trkpt lat="42.90608" lon="0.27815">
        <ele>1487</ele>
        <time>2016-04-10T06:45:27Z</time>
      </trkpt>
      <trkpt lat="42.90604" lon="0.27811">
        <ele>1488</ele>
        <time>2016-04-10T06:45:34Z</time>
      </trkpt>
      <trkpt lat="42.90595" lon="0.27796">
        <ele>1493</ele>
        <time>2016-04-10T06:45:52Z</time>
      </trkpt>
      <trkpt lat="42.90592" lon="0.27801">
        <ele>1493</ele>
        <time>2016-04-10T06:46:00Z</time>
      </trkpt>
      <trkpt lat="42.90591" lon="0.27807">
        <ele>1494</ele>
        <time>2016-04-10T06:46:05Z</time>
      </trkpt>
      <trkpt lat="42.90587" lon="0.27801">
        <ele>1497</ele>
        <time>2016-04-10T06:46:15Z</time>
      </trkpt>
      <trkpt lat="42.90582" lon="0.27777">
        <ele>1501</ele>
        <time>2016-04-10T06:46:42Z</time>
      </trkpt>
      <trkpt lat="42.90577" lon="0.27776">
        <ele>1503</ele>
        <time>2016-04-10T06:46:52Z</time>
      </trkpt>
      <trkpt lat="42.90573" lon="0.27772">
        <ele>1505</ele>
        <time>2016-04-10T06:47:02Z</time>
      </trkpt>
      <trkpt lat="42.90568" lon="0.27777">
        <ele>1507</ele>
        <time>2016-04-10T06:47:14Z</time>
      </trkpt>
      <trkpt lat="42.90566" lon="0.27771">
        <ele>1509</ele>
        <time>2016-04-10T06:47:23Z</time>
      </trkpt>
      <trkpt lat="42.90567" lon="0.27764">
        <ele>1510</ele>
        <time>2016-04-10T06:47:30Z</time>
      </trkpt>
      <trkpt lat="42.90565" lon="0.27759">
        <ele>1512</ele>
        <time>2016-04-10T06:47:40Z</time>
      </trkpt>
      <trkpt lat="42.90561" lon="0.27758">
        <ele>1512</ele>
        <time>2016-04-10T06:47:49Z</time>
      </trkpt>
      <trkpt lat="42.90562" lon="0.27752">
        <ele>1514</ele>
        <time>2016-04-10T06:47:57Z</time>
      </trkpt>
      <trkpt lat="42.90557" lon="0.27751">
        <ele>1516</ele>
        <time>2016-04-10T06:48:04Z</time>
      </trkpt>
      <trkpt lat="42.90548" lon="0.27748">
        <ele>1519</ele>
        <time>2016-04-10T06:48:23Z</time>
      </trkpt>
      <trkpt lat="42.90545" lon="0.27743">
        <ele>1521</ele>
        <time>2016-04-10T06:48:31Z</time>
      </trkpt>
      <trkpt lat="42.90538" lon="0.2774">
        <ele>1523</ele>
        <time>2016-04-10T06:48:52Z</time>
      </trkpt>
      <trkpt lat="42.90536" lon="0.27734">
        <ele>1524</ele>
        <time>2016-04-10T06:49:07Z</time>
      </trkpt>
      <trkpt lat="42.90532" lon="0.27737">
        <ele>1525</ele>
        <time>2016-04-10T06:49:13Z</time>
      </trkpt>
      <trkpt lat="42.90529" lon="0.27731">
        <ele>1526</ele>
        <time>2016-04-10T06:49:23Z</time>
      </trkpt>
      <trkpt lat="42.90526" lon="0.27726">
        <ele>1528</ele>
        <time>2016-04-10T06:49:32Z</time>
      </trkpt>
      <trkpt lat="42.90522" lon="0.2773">
        <ele>1528</ele>
        <time>2016-04-10T06:49:38Z</time>
      </trkpt>
      <trkpt lat="42.90518" lon="0.27727">
        <ele>1530</ele>
        <time>2016-04-10T06:49:47Z</time>
      </trkpt>
      <trkpt lat="42.90519" lon="0.27721">
        <ele>1531</ele>
        <time>2016-04-10T06:49:53Z</time>
      </trkpt>
      <trkpt lat="42.90518" lon="0.27718">
        <ele>1533</ele>
        <time>2016-04-10T06:50:00Z</time>
      </trkpt>
      <trkpt lat="42.9051" lon="0.27714">
        <ele>1537</ele>
        <time>2016-04-10T06:50:21Z</time>
      </trkpt>
      <trkpt lat="42.90506" lon="0.2771">
        <ele>1539</ele>
        <time>2016-04-10T06:50:30Z</time>
      </trkpt>
      <trkpt lat="42.90506" lon="0.27706">
        <ele>1541</ele>
        <time>2016-04-10T06:55:38Z</time>
      </trkpt>
      <trkpt lat="42.90501" lon="0.27699">
        <ele>1544</ele>
        <time>2016-04-10T06:55:55Z</time>
      </trkpt>
      <trkpt lat="42.90493" lon="0.27691">
        <ele>1548</ele>
        <time>2016-04-10T06:56:09Z</time>
      </trkpt>
      <trkpt lat="42.9049" lon="0.27693">
        <ele>1549</ele>
        <time>2016-04-10T06:56:17Z</time>
      </trkpt>
      <trkpt lat="42.90486" lon="0.27689">
        <ele>1551</ele>
        <time>2016-04-10T06:56:37Z</time>
      </trkpt>
      <trkpt lat="42.90486" lon="0.27683">
        <ele>1552</ele>
        <time>2016-04-10T06:56:45Z</time>
      </trkpt>
      <trkpt lat="42.90483" lon="0.27681">
        <ele>1555</ele>
        <time>2016-04-10T06:56:56Z</time>
      </trkpt>
      <trkpt lat="42.90477" lon="0.27678">
        <ele>1556</ele>
        <time>2016-04-10T06:57:09Z</time>
      </trkpt>
      <trkpt lat="42.90471" lon="0.27668">
        <ele>1560</ele>
        <time>2016-04-10T06:57:24Z</time>
      </trkpt>
      <trkpt lat="42.90466" lon="0.27671">
        <ele>1561</ele>
        <time>2016-04-10T06:57:31Z</time>
      </trkpt>
      <trkpt lat="42.90464" lon="0.27678">
        <ele>1562</ele>
        <time>2016-04-10T06:57:37Z</time>
      </trkpt>
      <trkpt lat="42.90458" lon="0.27677">
        <ele>1565</ele>
        <time>2016-04-10T06:57:52Z</time>
      </trkpt>
      <trkpt lat="42.90455" lon="0.27668">
        <ele>1568</ele>
        <time>2016-04-10T06:58:06Z</time>
      </trkpt>
      <trkpt lat="42.90451" lon="0.27652">
        <ele>1571</ele>
        <time>2016-04-10T06:58:27Z</time>
      </trkpt>
      <trkpt lat="42.90446" lon="0.27651">
        <ele>1573</ele>
        <time>2016-04-10T06:58:34Z</time>
      </trkpt>
      <trkpt lat="42.90442" lon="0.27658">
        <ele>1575</ele>
        <time>2016-04-10T06:58:47Z</time>
      </trkpt>
      <trkpt lat="42.90439" lon="0.27653">
        <ele>1576</ele>
        <time>2016-04-10T06:59:09Z</time>
      </trkpt>
      <trkpt lat="42.9043" lon="0.27631">
        <ele>1581</ele>
        <time>2016-04-10T06:59:38Z</time>
      </trkpt>
      <trkpt lat="42.90428" lon="0.27636">
        <ele>1582</ele>
        <time>2016-04-10T06:59:47Z</time>
      </trkpt>
      <trkpt lat="42.90424" lon="0.27634">
        <ele>1586</ele>
        <time>2016-04-10T07:00:11Z</time>
      </trkpt>
      <trkpt lat="42.90422" lon="0.27633">
        <ele>1588</ele>
        <time>2016-04-10T07:00:17Z</time>
      </trkpt>
      <trkpt lat="42.90418" lon="0.27621">
        <ele>1592</ele>
        <time>2016-04-10T07:00:31Z</time>
      </trkpt>
      <trkpt lat="42.90414" lon="0.27624">
        <ele>1593</ele>
        <time>2016-04-10T07:00:38Z</time>
      </trkpt>
      <trkpt lat="42.904" lon="0.27651">
        <ele>1601</ele>
        <time>2016-04-10T07:01:21Z</time>
      </trkpt>
      <trkpt lat="42.90396" lon="0.27649">
        <ele>1602</ele>
        <time>2016-04-10T07:01:28Z</time>
      </trkpt>
      <trkpt lat="42.9039" lon="0.27638">
        <ele>1604</ele>
        <time>2016-04-10T07:01:41Z</time>
      </trkpt>
      <trkpt lat="42.90388" lon="0.27631">
        <ele>1606</ele>
        <time>2016-04-10T07:01:48Z</time>
      </trkpt>
      <trkpt lat="42.90384" lon="0.27634">
        <ele>1607</ele>
        <time>2016-04-10T07:02:00Z</time>
      </trkpt>
      <trkpt lat="42.90382" lon="0.27639">
        <ele>1608</ele>
        <time>2016-04-10T07:02:06Z</time>
      </trkpt>
      <trkpt lat="42.90376" lon="0.27664">
        <ele>1613</ele>
        <time>2016-04-10T07:02:40Z</time>
      </trkpt>
      <trkpt lat="42.90374" lon="0.2767">
        <ele>1615</ele>
        <time>2016-04-10T07:02:47Z</time>
      </trkpt>
      <trkpt lat="42.90369" lon="0.27669">
        <ele>1616</ele>
        <time>2016-04-10T07:02:55Z</time>
      </trkpt>
      <trkpt lat="42.90362" lon="0.27658">
        <ele>1619</ele>
        <time>2016-04-10T07:03:06Z</time>
      </trkpt>
      <trkpt lat="42.90358" lon="0.27649">
        <ele>1622</ele>
        <time>2016-04-10T07:03:20Z</time>
      </trkpt>
      <trkpt lat="42.90356" lon="0.27655">
        <ele>1622</ele>
        <time>2016-04-10T07:03:27Z</time>
      </trkpt>
      <trkpt lat="42.90354" lon="0.27661">
        <ele>1623</ele>
        <time>2016-04-10T07:03:34Z</time>
      </trkpt>
      <trkpt lat="42.90345" lon="0.27683">
        <ele>1630</ele>
        <time>2016-04-10T07:04:08Z</time>
      </trkpt>
      <trkpt lat="42.90335" lon="0.27704">
        <ele>1635</ele>
        <time>2016-04-10T07:04:37Z</time>
      </trkpt>
      <trkpt lat="42.90331" lon="0.27702">
        <ele>1638</ele>
        <time>2016-04-10T07:04:44Z</time>
      </trkpt>
      <trkpt lat="42.90317" lon="0.27682">
        <ele>1643</ele>
        <time>2016-04-10T07:05:14Z</time>
      </trkpt>
      <trkpt lat="42.90307" lon="0.2766">
        <ele>1647</ele>
        <time>2016-04-10T07:05:49Z</time>
      </trkpt>
      <trkpt lat="42.90296" lon="0.2763">
        <ele>1652</ele>
        <time>2016-04-10T07:06:27Z</time>
      </trkpt>
      <trkpt lat="42.90293" lon="0.27624">
        <ele>1653</ele>
        <time>2016-04-10T07:06:35Z</time>
      </trkpt>
      <trkpt lat="42.90288" lon="0.2762">
        <ele>1655</ele>
        <time>2016-04-10T07:07:14Z</time>
      </trkpt>
      <trkpt lat="42.90285" lon="0.27619">
        <ele>1657</ele>
        <time>2016-04-10T07:07:48Z</time>
      </trkpt>
      <trkpt lat="42.90283" lon="0.27613">
        <ele>1659</ele>
        <time>2016-04-10T07:07:55Z</time>
      </trkpt>
      <trkpt lat="42.90284" lon="0.27606">
        <ele>1659</ele>
        <time>2016-04-10T07:07:59Z</time>
      </trkpt>
      <trkpt lat="42.90279" lon="0.27571">
        <ele>1655</ele>
        <time>2016-04-10T07:08:36Z</time>
      </trkpt>
      <trkpt lat="42.90272" lon="0.27561">
        <ele>1653</ele>
        <time>2016-04-10T07:08:44Z</time>
      </trkpt>
      <trkpt lat="42.90264" lon="0.27554">
        <ele>1653</ele>
        <time>2016-04-10T07:08:53Z</time>
      </trkpt>
      <trkpt lat="42.90259" lon="0.27556">
        <ele>1654</ele>
        <time>2016-04-10T07:08:58Z</time>
      </trkpt>
      <trkpt lat="42.90254" lon="0.27557">
        <ele>1654</ele>
        <time>2016-04-10T07:09:04Z</time>
      </trkpt>
      <trkpt lat="42.90236" lon="0.27566">
        <ele>1653</ele>
        <time>2016-04-10T07:09:16Z</time>
      </trkpt>
      <trkpt lat="42.90225" lon="0.27571">
        <ele>1654</ele>
        <time>2016-04-10T07:09:26Z</time>
      </trkpt>
      <trkpt lat="42.90216" lon="0.2757">
        <ele>1654</ele>
        <time>2016-04-10T07:09:42Z</time>
      </trkpt>
      <trkpt lat="42.90212" lon="0.27575">
        <ele>1655</ele>
        <time>2016-04-10T07:12:10Z</time>
      </trkpt>
      <trkpt lat="42.90208" lon="0.27578">
        <ele>1655</ele>
        <time>2016-04-10T07:12:14Z</time>
      </trkpt>
      <trkpt lat="42.90206" lon="0.2758">
        <ele>1655</ele>
        <time>2016-04-10T07:12:16Z</time>
      </trkpt>
      <trkpt lat="42.90198" lon="0.27579">
        <ele>1655</ele>
        <time>2016-04-10T07:12:22Z</time>
      </trkpt>
      <trkpt lat="42.90193" lon="0.2758">
        <ele>1656</ele>
        <time>2016-04-10T07:12:26Z</time>
      </trkpt>
      <trkpt lat="42.90174" lon="0.27571">
        <ele>1658</ele>
        <time>2016-04-10T07:12:48Z</time>
      </trkpt>
      <trkpt lat="42.90149" lon="0.27572">
        <ele>1661</ele>
        <time>2016-04-10T07:13:08Z</time>
      </trkpt>
      <trkpt lat="42.90128" lon="0.27552">
        <ele>1664</ele>
        <time>2016-04-10T07:13:38Z</time>
      </trkpt>
      <trkpt lat="42.90101" lon="0.2752">
        <ele>1667</ele>
        <time>2016-04-10T07:14:14Z</time>
      </trkpt>
      <trkpt lat="42.90079" lon="0.2751">
        <ele>1672</ele>
        <time>2016-04-10T07:14:50Z</time>
      </trkpt>
      <trkpt lat="42.90069" lon="0.27512">
        <ele>1674</ele>
        <time>2016-04-10T07:15:04Z</time>
      </trkpt>
      <trkpt lat="42.90052" lon="0.27501">
        <ele>1678</ele>
        <time>2016-04-10T07:15:36Z</time>
      </trkpt>
      <trkpt lat="42.90029" lon="0.27494">
        <ele>1686</ele>
        <time>2016-04-10T07:16:12Z</time>
      </trkpt>
      <trkpt lat="42.90024" lon="0.27494">
        <ele>1686</ele>
        <time>2016-04-10T07:16:17Z</time>
      </trkpt>
      <trkpt lat="42.90006" lon="0.27486">
        <ele>1692</ele>
        <time>2016-04-10T07:16:54Z</time>
      </trkpt>
      <trkpt lat="42.90001" lon="0.27485">
        <ele>1695</ele>
        <time>2016-04-10T07:17:04Z</time>
      </trkpt>
      <trkpt lat="42.89996" lon="0.27484">
        <ele>1695</ele>
        <time>2016-04-10T07:17:11Z</time>
      </trkpt>
      <trkpt lat="42.89992" lon="0.2748">
        <ele>1697</ele>
        <time>2016-04-10T07:17:19Z</time>
      </trkpt>
      <trkpt lat="42.89988" lon="0.27478">
        <ele>1698</ele>
        <time>2016-04-10T07:17:25Z</time>
      </trkpt>
      <trkpt lat="42.89971" lon="0.27483">
        <ele>1703</ele>
        <time>2016-04-10T07:17:55Z</time>
      </trkpt>
      <trkpt lat="42.89948" lon="0.27477">
        <ele>1708</ele>
        <time>2016-04-10T07:18:29Z</time>
      </trkpt>
      <trkpt lat="42.89939" lon="0.27473">
        <ele>1709</ele>
        <time>2016-04-10T07:18:44Z</time>
      </trkpt>
      <trkpt lat="42.89922" lon="0.27447">
        <ele>1713</ele>
        <time>2016-04-10T07:19:19Z</time>
      </trkpt>
      <trkpt lat="42.89919" lon="0.2744">
        <ele>1714</ele>
        <time>2016-04-10T07:19:26Z</time>
      </trkpt>
      <trkpt lat="42.89923" lon="0.27408">
        <ele>1718</ele>
        <time>2016-04-10T07:19:49Z</time>
      </trkpt>
      <trkpt lat="42.8992" lon="0.27402">
        <ele>1719</ele>
        <time>2016-04-10T07:19:56Z</time>
      </trkpt>
      <trkpt lat="42.89916" lon="0.27399">
        <ele>1719</ele>
        <time>2016-04-10T07:20:00Z</time>
      </trkpt>
      <trkpt lat="42.89912" lon="0.27395">
        <ele>1720</ele>
        <time>2016-04-10T07:20:05Z</time>
      </trkpt>
      <trkpt lat="42.89907" lon="0.27393">
        <ele>1720</ele>
        <time>2016-04-10T07:20:11Z</time>
      </trkpt>
      <trkpt lat="42.89901" lon="0.27386">
        <ele>1720</ele>
        <time>2016-04-10T07:20:25Z</time>
      </trkpt>
      <trkpt lat="42.89896" lon="0.27385">
        <ele>1720</ele>
        <time>2016-04-10T07:20:41Z</time>
      </trkpt>
      <trkpt lat="42.89873" lon="0.27376">
        <ele>1720</ele>
        <time>2016-04-10T07:20:59Z</time>
      </trkpt>
      <trkpt lat="42.8987" lon="0.2737">
        <ele>1720</ele>
        <time>2016-04-10T07:21:03Z</time>
      </trkpt>
      <trkpt lat="42.89862" lon="0.27365">
        <ele>1721</ele>
        <time>2016-04-10T07:21:11Z</time>
      </trkpt>
      <trkpt lat="42.89847" lon="0.27348">
        <ele>1720</ele>
        <time>2016-04-10T07:21:28Z</time>
      </trkpt>
      <trkpt lat="42.89839" lon="0.27343">
        <ele>1721</ele>
        <time>2016-04-10T07:21:34Z</time>
      </trkpt>
      <trkpt lat="42.89801" lon="0.27321">
        <ele>1720</ele>
        <time>2016-04-10T07:22:04Z</time>
      </trkpt>
      <trkpt lat="42.89797" lon="0.27318">
        <ele>1720</ele>
        <time>2016-04-10T07:22:09Z</time>
      </trkpt>
      <trkpt lat="42.89792" lon="0.27317">
        <ele>1720</ele>
        <time>2016-04-10T07:22:14Z</time>
      </trkpt>
      <trkpt lat="42.89787" lon="0.27315">
        <ele>1720</ele>
        <time>2016-04-10T07:22:19Z</time>
      </trkpt>
      <trkpt lat="42.89752" lon="0.27309">
        <ele>1725</ele>
        <time>2016-04-10T07:22:56Z</time>
      </trkpt>
      <trkpt lat="42.89747" lon="0.27307">
        <ele>1725</ele>
        <time>2016-04-10T07:23:01Z</time>
      </trkpt>
      <trkpt lat="42.89729" lon="0.27307">
        <ele>1726</ele>
        <time>2016-04-10T07:23:22Z</time>
      </trkpt>
      <trkpt lat="42.89726" lon="0.27302">
        <ele>1727</ele>
        <time>2016-04-10T07:23:27Z</time>
      </trkpt>
      <trkpt lat="42.89699" lon="0.2727">
        <ele>1730</ele>
        <time>2016-04-10T07:24:01Z</time>
      </trkpt>
      <trkpt lat="42.89679" lon="0.27239">
        <ele>1733</ele>
        <time>2016-04-10T07:24:33Z</time>
      </trkpt>
      <trkpt lat="42.8967" lon="0.27223">
        <ele>1735</ele>
        <time>2016-04-10T07:24:49Z</time>
      </trkpt>
      <trkpt lat="42.89663" lon="0.27215">
        <ele>1736</ele>
        <time>2016-04-10T07:25:05Z</time>
      </trkpt>
      <trkpt lat="42.89654" lon="0.2721">
        <ele>1740</ele>
        <time>2016-04-10T07:25:26Z</time>
      </trkpt>
      <trkpt lat="42.89649" lon="0.27213">
        <ele>1742</ele>
        <time>2016-04-10T07:25:32Z</time>
      </trkpt>
      <trkpt lat="42.89634" lon="0.27231">
        <ele>1748</ele>
        <time>2016-04-10T07:25:59Z</time>
      </trkpt>
      <trkpt lat="42.8962" lon="0.27259">
        <ele>1752</ele>
        <time>2016-04-10T07:26:33Z</time>
      </trkpt>
      <trkpt lat="42.89611" lon="0.27273">
        <ele>1753</ele>
        <time>2016-04-10T07:26:54Z</time>
      </trkpt>
      <trkpt lat="42.89605" lon="0.27271">
        <ele>1755</ele>
        <time>2016-04-10T07:27:09Z</time>
      </trkpt>
      <trkpt lat="42.89595" lon="0.27277">
        <ele>1758</ele>
        <time>2016-04-10T07:27:30Z</time>
      </trkpt>
      <trkpt lat="42.89591" lon="0.27281">
        <ele>1758</ele>
        <time>2016-04-10T07:27:37Z</time>
      </trkpt>
      <trkpt lat="42.89588" lon="0.27284">
        <ele>1759</ele>
        <time>2016-04-10T07:27:45Z</time>
      </trkpt>
      <trkpt lat="42.89583" lon="0.27284">
        <ele>1760</ele>
        <time>2016-04-10T07:27:59Z</time>
      </trkpt>
      <trkpt lat="42.89573" lon="0.27286">
        <ele>1761</ele>
        <time>2016-04-10T07:28:14Z</time>
      </trkpt>
      <trkpt lat="42.89568" lon="0.27285">
        <ele>1763</ele>
        <time>2016-04-10T07:28:24Z</time>
      </trkpt>
      <trkpt lat="42.89567" lon="0.27279">
        <ele>1766</ele>
        <time>2016-04-10T07:28:43Z</time>
      </trkpt>
      <trkpt lat="42.89559" lon="0.27256">
        <ele>1773</ele>
        <time>2016-04-10T07:29:09Z</time>
      </trkpt>
      <trkpt lat="42.89564" lon="0.27254">
        <ele>1773</ele>
        <time>2016-04-10T07:29:14Z</time>
      </trkpt>
      <trkpt lat="42.89563" lon="0.27248">
        <ele>1778</ele>
        <time>2016-04-10T07:30:09Z</time>
      </trkpt>
      <trkpt lat="42.89545" lon="0.27226">
        <ele>1782</ele>
        <time>2016-04-10T07:30:40Z</time>
      </trkpt>
      <trkpt lat="42.89527" lon="0.27203">
        <ele>1787</ele>
        <time>2016-04-10T07:31:10Z</time>
      </trkpt>
      <trkpt lat="42.89524" lon="0.27198">
        <ele>1787</ele>
        <time>2016-04-10T07:31:16Z</time>
      </trkpt>
      <trkpt lat="42.89522" lon="0.27191">
        <ele>1788</ele>
        <time>2016-04-10T07:31:23Z</time>
      </trkpt>
      <trkpt lat="42.89519" lon="0.27186">
        <ele>1789</ele>
        <time>2016-04-10T07:31:29Z</time>
      </trkpt>
      <trkpt lat="42.89514" lon="0.27185">
        <ele>1791</ele>
        <time>2016-04-10T07:31:36Z</time>
      </trkpt>
      <trkpt lat="42.8951" lon="0.27181">
        <ele>1792</ele>
        <time>2016-04-10T07:31:43Z</time>
      </trkpt>
      <trkpt lat="42.89509" lon="0.27175">
        <ele>1793</ele>
        <time>2016-04-10T07:31:49Z</time>
      </trkpt>
      <trkpt lat="42.89502" lon="0.27165">
        <ele>1795</ele>
        <time>2016-04-10T07:32:01Z</time>
      </trkpt>
      <trkpt lat="42.89498" lon="0.27161">
        <ele>1794</ele>
        <time>2016-04-10T07:32:07Z</time>
      </trkpt>
      <trkpt lat="42.89495" lon="0.27156">
        <ele>1794</ele>
        <time>2016-04-10T07:32:13Z</time>
      </trkpt>
      <trkpt lat="42.89487" lon="0.27148">
        <ele>1797</ele>
        <time>2016-04-10T07:32:29Z</time>
      </trkpt>
      <trkpt lat="42.89468" lon="0.27142">
        <ele>1801</ele>
        <time>2016-04-10T07:33:01Z</time>
      </trkpt>
      <trkpt lat="42.89464" lon="0.27141">
        <ele>1802</ele>
        <time>2016-04-10T07:33:09Z</time>
      </trkpt>
      <trkpt lat="42.89446" lon="0.27153">
        <ele>1807</ele>
        <time>2016-04-10T07:33:40Z</time>
      </trkpt>
      <trkpt lat="42.89429" lon="0.27164">
        <ele>1812</ele>
        <time>2016-04-10T07:34:14Z</time>
      </trkpt>
      <trkpt lat="42.89411" lon="0.27174">
        <ele>1815</ele>
        <time>2016-04-10T07:34:41Z</time>
      </trkpt>
      <trkpt lat="42.89407" lon="0.27178">
        <ele>1815</ele>
        <time>2016-04-10T07:34:48Z</time>
      </trkpt>
      <trkpt lat="42.89388" lon="0.27185">
        <ele>1820</ele>
        <time>2016-04-10T07:35:18Z</time>
      </trkpt>
      <trkpt lat="42.89383" lon="0.27185">
        <ele>1821</ele>
        <time>2016-04-10T07:35:25Z</time>
      </trkpt>
      <trkpt lat="42.89374" lon="0.27192">
        <ele>1823</ele>
        <time>2016-04-10T07:35:40Z</time>
      </trkpt>
      <trkpt lat="42.89366" lon="0.27191">
        <ele>1825</ele>
        <time>2016-04-10T07:35:56Z</time>
      </trkpt>
      <trkpt lat="42.89359" lon="0.27181">
        <ele>1826</ele>
        <time>2016-04-10T07:36:22Z</time>
      </trkpt>
      <trkpt lat="42.89355" lon="0.27184">
        <ele>1826</ele>
        <time>2016-04-10T07:36:33Z</time>
      </trkpt>
      <trkpt lat="42.8935" lon="0.27182">
        <ele>1826</ele>
        <time>2016-04-10T07:36:39Z</time>
      </trkpt>
      <trkpt lat="42.89345" lon="0.27162">
        <ele>1824</ele>
        <time>2016-04-10T07:36:52Z</time>
      </trkpt>
      <trkpt lat="42.89343" lon="0.27151">
        <ele>1823</ele>
        <time>2016-04-10T07:37:01Z</time>
      </trkpt>
      <trkpt lat="42.89341" lon="0.27144">
        <ele>1823</ele>
        <time>2016-04-10T07:37:09Z</time>
      </trkpt>
      <trkpt lat="42.89338" lon="0.27139">
        <ele>1823</ele>
        <time>2016-04-10T07:37:15Z</time>
      </trkpt>
      <trkpt lat="42.89334" lon="0.27136">
        <ele>1824</ele>
        <time>2016-04-10T07:37:21Z</time>
      </trkpt>
      <trkpt lat="42.89329" lon="0.27135">
        <ele>1824</ele>
        <time>2016-04-10T07:37:25Z</time>
      </trkpt>
      <trkpt lat="42.89322" lon="0.27128">
        <ele>1824</ele>
        <time>2016-04-10T07:37:35Z</time>
      </trkpt>
      <trkpt lat="42.89318" lon="0.27123">
        <ele>1823</ele>
        <time>2016-04-10T07:37:41Z</time>
      </trkpt>
      <trkpt lat="42.89316" lon="0.27118">
        <ele>1823</ele>
        <time>2016-04-10T07:37:46Z</time>
      </trkpt>
      <trkpt lat="42.89312" lon="0.27104">
        <ele>1824</ele>
        <time>2016-04-10T07:37:57Z</time>
      </trkpt>
      <trkpt lat="42.8931" lon="0.27099">
        <ele>1825</ele>
        <time>2016-04-10T07:38:01Z</time>
      </trkpt>
      <trkpt lat="42.89311" lon="0.27092">
        <ele>1825</ele>
        <time>2016-04-10T07:38:07Z</time>
      </trkpt>
      <trkpt lat="42.89307" lon="0.27088">
        <ele>1827</ele>
        <time>2016-04-10T07:38:15Z</time>
      </trkpt>
      <trkpt lat="42.89294" lon="0.27062">
        <ele>1835</ele>
        <time>2016-04-10T07:38:50Z</time>
      </trkpt>
      <trkpt lat="42.89282" lon="0.27033">
        <ele>1841</ele>
        <time>2016-04-10T07:39:21Z</time>
      </trkpt>
      <trkpt lat="42.89264" lon="0.2701">
        <ele>1848</ele>
        <time>2016-04-10T07:39:56Z</time>
      </trkpt>
      <trkpt lat="42.89257" lon="0.27001">
        <ele>1850</ele>
        <time>2016-04-10T07:40:09Z</time>
      </trkpt>
      <trkpt lat="42.89242" lon="0.26983">
        <ele>1851</ele>
        <time>2016-04-10T07:40:32Z</time>
      </trkpt>
      <trkpt lat="42.89236" lon="0.26974">
        <ele>1852</ele>
        <time>2016-04-10T07:40:44Z</time>
      </trkpt>
      <trkpt lat="42.89215" lon="0.26957">
        <ele>1857</ele>
        <time>2016-04-10T07:41:15Z</time>
      </trkpt>
      <trkpt lat="42.89208" lon="0.26947">
        <ele>1859</ele>
        <time>2016-04-10T07:41:27Z</time>
      </trkpt>
      <trkpt lat="42.89186" lon="0.26929">
        <ele>1864</ele>
        <time>2016-04-10T07:42:02Z</time>
      </trkpt>
      <trkpt lat="42.89176" lon="0.26911">
        <ele>1868</ele>
        <time>2016-04-10T07:42:23Z</time>
      </trkpt>
      <trkpt lat="42.89162" lon="0.26901">
        <ele>1871</ele>
        <time>2016-04-10T07:42:44Z</time>
      </trkpt>
      <trkpt lat="42.89132" lon="0.26893">
        <ele>1875</ele>
        <time>2016-04-10T07:43:25Z</time>
      </trkpt>
      <trkpt lat="42.89122" lon="0.2689">
        <ele>1877</ele>
        <time>2016-04-10T07:43:38Z</time>
      </trkpt>
      <trkpt lat="42.89114" lon="0.26894">
        <ele>1877</ele>
        <time>2016-04-10T07:43:44Z</time>
      </trkpt>
      <trkpt lat="42.89095" lon="0.26892">
        <ele>1881</ele>
        <time>2016-04-10T07:44:06Z</time>
      </trkpt>
      <trkpt lat="42.89074" lon="0.26875">
        <ele>1888</ele>
        <time>2016-04-10T07:44:43Z</time>
      </trkpt>
      <trkpt lat="42.89048" lon="0.2686">
        <ele>1893</ele>
        <time>2016-04-10T07:45:25Z</time>
      </trkpt>
      <trkpt lat="42.89044" lon="0.26857">
        <ele>1894</ele>
        <time>2016-04-10T07:45:35Z</time>
      </trkpt>
      <trkpt lat="42.89044" lon="0.26848">
        <ele>1895</ele>
        <time>2016-04-10T07:45:51Z</time>
      </trkpt>
      <trkpt lat="42.89038" lon="0.26838">
        <ele>1896</ele>
        <time>2016-04-10T07:46:13Z</time>
      </trkpt>
      <trkpt lat="42.89035" lon="0.26838">
        <ele>1900</ele>
        <time>2016-04-10T07:46:47Z</time>
      </trkpt>
      <trkpt lat="42.89025" lon="0.26834">
        <ele>1900</ele>
        <time>2016-04-10T07:47:27Z</time>
      </trkpt>
      <trkpt lat="42.89017" lon="0.26819">
        <ele>1904</ele>
        <time>2016-04-10T07:47:46Z</time>
      </trkpt>
      <trkpt lat="42.89003" lon="0.26816">
        <ele>1908</ele>
        <time>2016-04-10T07:48:03Z</time>
      </trkpt>
      <trkpt lat="42.8899" lon="0.268">
        <ele>1913</ele>
        <time>2016-04-10T07:48:30Z</time>
      </trkpt>
      <trkpt lat="42.88982" lon="0.26801">
        <ele>1914</ele>
        <time>2016-04-10T07:48:43Z</time>
      </trkpt>
      <trkpt lat="42.88977" lon="0.26803">
        <ele>1915</ele>
        <time>2016-04-10T07:48:50Z</time>
      </trkpt>
      <trkpt lat="42.88962" lon="0.26807">
        <ele>1919</ele>
        <time>2016-04-10T07:49:12Z</time>
      </trkpt>
      <trkpt lat="42.8896" lon="0.268">
        <ele>1923</ele>
        <time>2016-04-10T07:49:41Z</time>
      </trkpt>
      <trkpt lat="42.88951" lon="0.26798">
        <ele>1924</ele>
        <time>2016-04-10T07:49:55Z</time>
      </trkpt>
      <trkpt lat="42.88948" lon="0.26806">
        <ele>1929</ele>
        <time>2016-04-10T07:50:13Z</time>
      </trkpt>
      <trkpt lat="42.88944" lon="0.26812">
        <ele>1931</ele>
        <time>2016-04-10T07:50:33Z</time>
      </trkpt>
      <trkpt lat="42.88942" lon="0.26817">
        <ele>1934</ele>
        <time>2016-04-10T07:50:57Z</time>
      </trkpt>
      <trkpt lat="42.88935" lon="0.26827">
        <ele>1935</ele>
        <time>2016-04-10T07:51:10Z</time>
      </trkpt>
      <trkpt lat="42.88928" lon="0.26835">
        <ele>1938</ele>
        <time>2016-04-10T07:51:22Z</time>
      </trkpt>
      <trkpt lat="42.88925" lon="0.26846">
        <ele>1940</ele>
        <time>2016-04-10T07:51:33Z</time>
      </trkpt>
      <trkpt lat="42.88921" lon="0.26843">
        <ele>1947</ele>
        <time>2016-04-10T07:52:18Z</time>
      </trkpt>
      <trkpt lat="42.88918" lon="0.26843">
        <ele>1948</ele>
        <time>2016-04-10T07:52:26Z</time>
      </trkpt>
      <trkpt lat="42.88916" lon="0.26852">
        <ele>1949</ele>
        <time>2016-04-10T07:52:36Z</time>
      </trkpt>
      <trkpt lat="42.88907" lon="0.26867">
        <ele>1951</ele>
        <time>2016-04-10T07:52:55Z</time>
      </trkpt>
      <trkpt lat="42.88903" lon="0.26865">
        <ele>1955</ele>
        <time>2016-04-10T07:53:15Z</time>
      </trkpt>
      <trkpt lat="42.88899" lon="0.26862">
        <ele>1955</ele>
        <time>2016-04-10T07:53:24Z</time>
      </trkpt>
      <trkpt lat="42.88894" lon="0.2687">
        <ele>1958</ele>
        <time>2016-04-10T07:53:46Z</time>
      </trkpt>
      <trkpt lat="42.88894" lon="0.26867">
        <ele>1959</ele>
        <time>2016-04-10T07:53:52Z</time>
      </trkpt>
      <trkpt lat="42.88894" lon="0.26862">
        <ele>1960</ele>
        <time>2016-04-10T07:54:04Z</time>
      </trkpt>
      <trkpt lat="42.8889" lon="0.26857">
        <ele>1961</ele>
        <time>2016-04-10T07:54:13Z</time>
      </trkpt>
      <trkpt lat="42.88887" lon="0.26854">
        <ele>1964</ele>
        <time>2016-04-10T07:54:19Z</time>
      </trkpt>
      <trkpt lat="42.88886" lon="0.2686">
        <ele>1966</ele>
        <time>2016-04-10T07:54:44Z</time>
      </trkpt>
      <trkpt lat="42.88881" lon="0.2686">
        <ele>1967</ele>
        <time>2016-04-10T07:55:04Z</time>
      </trkpt>
      <trkpt lat="42.88875" lon="0.26855">
        <ele>1972</ele>
        <time>2016-04-10T07:56:19Z</time>
      </trkpt>
      <trkpt lat="42.88872" lon="0.26859">
        <ele>1974</ele>
        <time>2016-04-10T07:56:36Z</time>
      </trkpt>
      <trkpt lat="42.88871" lon="0.26864">
        <ele>1974</ele>
        <time>2016-04-10T07:56:44Z</time>
      </trkpt>
      <trkpt lat="42.88867" lon="0.26862">
        <ele>1975</ele>
        <time>2016-04-10T07:56:51Z</time>
      </trkpt>
      <trkpt lat="42.88864" lon="0.26857">
        <ele>1976</ele>
        <time>2016-04-10T07:57:00Z</time>
      </trkpt>
      <trkpt lat="42.88864" lon="0.2685">
        <ele>1977</ele>
        <time>2016-04-10T07:57:08Z</time>
      </trkpt>
      <trkpt lat="42.88864" lon="0.26844">
        <ele>1980</ele>
        <time>2016-04-10T07:57:18Z</time>
      </trkpt>
      <trkpt lat="42.8886" lon="0.26832">
        <ele>1984</ele>
        <time>2016-04-10T07:57:34Z</time>
      </trkpt>
      <trkpt lat="42.88847" lon="0.26822">
        <ele>1988</ele>
        <time>2016-04-10T07:57:58Z</time>
      </trkpt>
      <trkpt lat="42.88832" lon="0.26791">
        <ele>1994</ele>
        <time>2016-04-10T07:58:40Z</time>
      </trkpt>
      <trkpt lat="42.88827" lon="0.26792">
        <ele>1997</ele>
        <time>2016-04-10T07:58:56Z</time>
      </trkpt>
      <trkpt lat="42.88826" lon="0.26798">
        <ele>1998</ele>
        <time>2016-04-10T07:59:05Z</time>
      </trkpt>
      <trkpt lat="42.8882" lon="0.26811">
        <ele>2001</ele>
        <time>2016-04-10T07:59:26Z</time>
      </trkpt>
      <trkpt lat="42.88812" lon="0.2682">
        <ele>2001</ele>
        <time>2016-04-10T07:59:38Z</time>
      </trkpt>
      <trkpt lat="42.88813" lon="0.26824">
        <ele>2001</ele>
        <time>2016-04-10T08:01:05Z</time>
      </trkpt>
      <trkpt lat="42.88815" lon="0.26832">
        <ele>2002</ele>
        <time>2016-04-10T08:01:21Z</time>
      </trkpt>
      <trkpt lat="42.88812" lon="0.26838">
        <ele>2003</ele>
        <time>2016-04-10T08:01:28Z</time>
      </trkpt>
      <trkpt lat="42.88809" lon="0.26843">
        <ele>2004</ele>
        <time>2016-04-10T08:01:35Z</time>
      </trkpt>
      <trkpt lat="42.88808" lon="0.2685">
        <ele>2006</ele>
        <time>2016-04-10T08:01:44Z</time>
      </trkpt>
      <trkpt lat="42.88804" lon="0.26853">
        <ele>2007</ele>
        <time>2016-04-10T08:01:53Z</time>
      </trkpt>
      <trkpt lat="42.88802" lon="0.26851">
        <ele>2008</ele>
        <time>2016-04-10T08:02:00Z</time>
      </trkpt>
      <trkpt lat="42.88792" lon="0.26846">
        <ele>2012</ele>
        <time>2016-04-10T08:02:22Z</time>
      </trkpt>
      <trkpt lat="42.88789" lon="0.26852">
        <ele>2013</ele>
        <time>2016-04-10T08:02:29Z</time>
      </trkpt>
      <trkpt lat="42.88785" lon="0.26854">
        <ele>2015</ele>
        <time>2016-04-10T08:02:36Z</time>
      </trkpt>
      <trkpt lat="42.8878" lon="0.26852">
        <ele>2016</ele>
        <time>2016-04-10T08:02:43Z</time>
      </trkpt>
      <trkpt lat="42.88776" lon="0.26853">
        <ele>2018</ele>
        <time>2016-04-10T08:02:49Z</time>
      </trkpt>
      <trkpt lat="42.88776" lon="0.26859">
        <ele>2020</ele>
        <time>2016-04-10T08:03:04Z</time>
      </trkpt>
      <trkpt lat="42.88778" lon="0.26874">
        <ele>2022</ele>
        <time>2016-04-10T08:03:42Z</time>
      </trkpt>
      <trkpt lat="42.88779" lon="0.26879">
        <ele>2022</ele>
        <time>2016-04-10T08:03:51Z</time>
      </trkpt>
      <trkpt lat="42.88774" lon="0.26877">
        <ele>2022</ele>
        <time>2016-04-10T08:04:04Z</time>
      </trkpt>
      <trkpt lat="42.88769" lon="0.26877">
        <ele>2022</ele>
        <time>2016-04-10T08:04:10Z</time>
      </trkpt>
      <trkpt lat="42.88765" lon="0.2688">
        <ele>2023</ele>
        <time>2016-04-10T08:04:17Z</time>
      </trkpt>
      <trkpt lat="42.88741" lon="0.26878">
        <ele>2028</ele>
        <time>2016-04-10T08:06:06Z</time>
      </trkpt>
      <trkpt lat="42.88732" lon="0.2688">
        <ele>2031</ele>
        <time>2016-04-10T08:06:22Z</time>
      </trkpt>
      <trkpt lat="42.88731" lon="0.26895">
        <ele>2034</ele>
        <time>2016-04-10T08:06:47Z</time>
      </trkpt>
      <trkpt lat="42.88724" lon="0.26896">
        <ele>2038</ele>
        <time>2016-04-10T08:07:03Z</time>
      </trkpt>
      <trkpt lat="42.88713" lon="0.26899">
        <ele>2042</ele>
        <time>2016-04-10T08:08:51Z</time>
      </trkpt>
      <trkpt lat="42.88709" lon="0.26892">
        <ele>2044</ele>
        <time>2016-04-10T08:09:05Z</time>
      </trkpt>
      <trkpt lat="42.88699" lon="0.26894">
        <ele>2051</ele>
        <time>2016-04-10T08:09:38Z</time>
      </trkpt>
      <trkpt lat="42.88693" lon="0.26905">
        <ele>2054</ele>
        <time>2016-04-10T08:09:53Z</time>
      </trkpt>
      <trkpt lat="42.88695" lon="0.26916">
        <ele>2059</ele>
        <time>2016-04-10T08:10:13Z</time>
      </trkpt>
      <trkpt lat="42.88685" lon="0.26912">
        <ele>2060</ele>
        <time>2016-04-10T08:10:27Z</time>
      </trkpt>
      <trkpt lat="42.88667" lon="0.26913">
        <ele>2064</ele>
        <time>2016-04-10T08:10:58Z</time>
      </trkpt>
      <trkpt lat="42.88658" lon="0.26925">
        <ele>2071</ele>
        <time>2016-04-10T08:11:40Z</time>
      </trkpt>
      <trkpt lat="42.88652" lon="0.26916">
        <ele>2074</ele>
        <time>2016-04-10T08:12:13Z</time>
      </trkpt>
      <trkpt lat="42.88644" lon="0.26909">
        <ele>2078</ele>
        <time>2016-04-10T08:12:33Z</time>
      </trkpt>
      <trkpt lat="42.88636" lon="0.26915">
        <ele>2080</ele>
        <time>2016-04-10T08:12:49Z</time>
      </trkpt>
      <trkpt lat="42.8863" lon="0.26928">
        <ele>2086</ele>
        <time>2016-04-10T08:13:18Z</time>
      </trkpt>
      <trkpt lat="42.88621" lon="0.26927">
        <ele>2087</ele>
        <time>2016-04-10T08:13:30Z</time>
      </trkpt>
      <trkpt lat="42.88611" lon="0.26925">
        <ele>2092</ele>
        <time>2016-04-10T08:13:46Z</time>
      </trkpt>
      <trkpt lat="42.88601" lon="0.26904">
        <ele>2099</ele>
        <time>2016-04-10T08:14:19Z</time>
      </trkpt>
      <trkpt lat="42.88592" lon="0.26902">
        <ele>2101</ele>
        <time>2016-04-10T08:14:35Z</time>
      </trkpt>
      <trkpt lat="42.88575" lon="0.26903">
        <ele>2104</ele>
        <time>2016-04-10T08:15:07Z</time>
      </trkpt>
      <trkpt lat="42.88573" lon="0.26902">
        <ele>2107</ele>
        <time>2016-04-10T08:19:11Z</time>
      </trkpt>
      <trkpt lat="42.88566" lon="0.26903">
        <ele>2107</ele>
        <time>2016-04-10T08:19:26Z</time>
      </trkpt>
      <trkpt lat="42.88564" lon="0.26903">
        <ele>2106</ele>
        <time>2016-04-10T08:19:33Z</time>
      </trkpt>
      <trkpt lat="42.88548" lon="0.26907">
        <ele>2107</ele>
        <time>2016-04-10T08:19:54Z</time>
      </trkpt>
      <trkpt lat="42.88531" lon="0.26919">
        <ele>2110</ele>
        <time>2016-04-10T08:20:13Z</time>
      </trkpt>
      <trkpt lat="42.88522" lon="0.26917">
        <ele>2112</ele>
        <time>2016-04-10T08:20:25Z</time>
      </trkpt>
      <trkpt lat="42.88516" lon="0.26915">
        <ele>2115</ele>
        <time>2016-04-10T08:21:22Z</time>
      </trkpt>
      <trkpt lat="42.88506" lon="0.26916">
        <ele>2118</ele>
        <time>2016-04-10T08:21:36Z</time>
      </trkpt>
      <trkpt lat="42.88488" lon="0.2692">
        <ele>2123</ele>
        <time>2016-04-10T08:21:59Z</time>
      </trkpt>
      <trkpt lat="42.88461" lon="0.26911">
        <ele>2127</ele>
        <time>2016-04-10T08:22:42Z</time>
      </trkpt>
      <trkpt lat="42.88452" lon="0.26908">
        <ele>2130</ele>
        <time>2016-04-10T08:23:01Z</time>
      </trkpt>
      <trkpt lat="42.88447" lon="0.26911">
        <ele>2132</ele>
        <time>2016-04-10T08:23:16Z</time>
      </trkpt>
      <trkpt lat="42.88419" lon="0.26927">
        <ele>2141</ele>
        <time>2016-04-10T08:24:07Z</time>
      </trkpt>
      <trkpt lat="42.88396" lon="0.26948">
        <ele>2145</ele>
        <time>2016-04-10T08:24:44Z</time>
      </trkpt>
      <trkpt lat="42.88371" lon="0.26961">
        <ele>2151</ele>
        <time>2016-04-10T08:25:23Z</time>
      </trkpt>
      <trkpt lat="42.88357" lon="0.26967">
        <ele>2154</ele>
        <time>2016-04-10T08:26:06Z</time>
      </trkpt>
      <trkpt lat="42.88335" lon="0.2698">
        <ele>2158</ele>
        <time>2016-04-10T08:27:40Z</time>
      </trkpt>
      <trkpt lat="42.88326" lon="0.2699">
        <ele>2160</ele>
        <time>2016-04-10T08:28:01Z</time>
      </trkpt>
      <trkpt lat="42.88331" lon="0.26995">
        <ele>2163</ele>
        <time>2016-04-10T08:28:07Z</time>
      </trkpt>
      <trkpt lat="42.88344" lon="0.26996">
        <ele>2170</ele>
        <time>2016-04-10T08:28:36Z</time>
      </trkpt>
      <trkpt lat="42.88342" lon="0.26999">
        <ele>2172</ele>
        <time>2016-04-10T08:28:48Z</time>
      </trkpt>
      <trkpt lat="42.88337" lon="0.27001">
        <ele>2173</ele>
        <time>2016-04-10T08:28:53Z</time>
      </trkpt>
      <trkpt lat="42.88324" lon="0.2701">
        <ele>2177</ele>
        <time>2016-04-10T08:29:15Z</time>
      </trkpt>
      <trkpt lat="42.88328" lon="0.27015">
        <ele>2178</ele>
        <time>2016-04-10T08:29:34Z</time>
      </trkpt>
      <trkpt lat="42.8833" lon="0.27019">
        <ele>2179</ele>
        <time>2016-04-10T08:29:55Z</time>
      </trkpt>
      <trkpt lat="42.88318" lon="0.27028">
        <ele>2184</ele>
        <time>2016-04-10T08:30:19Z</time>
      </trkpt>
      <trkpt lat="42.88323" lon="0.2703">
        <ele>2185</ele>
        <time>2016-04-10T08:30:25Z</time>
      </trkpt>
      <trkpt lat="42.88325" lon="0.27036">
        <ele>2187</ele>
        <time>2016-04-10T08:30:32Z</time>
      </trkpt>
      <trkpt lat="42.88321" lon="0.27038">
        <ele>2188</ele>
        <time>2016-04-10T08:30:39Z</time>
      </trkpt>
      <trkpt lat="42.88308" lon="0.27046">
        <ele>2192</ele>
        <time>2016-04-10T08:31:00Z</time>
      </trkpt>
      <trkpt lat="42.88307" lon="0.27052">
        <ele>2197</ele>
        <time>2016-04-10T08:31:26Z</time>
      </trkpt>
      <trkpt lat="42.88311" lon="0.27056">
        <ele>2198</ele>
        <time>2016-04-10T08:31:34Z</time>
      </trkpt>
      <trkpt lat="42.88314" lon="0.27061">
        <ele>2200</ele>
        <time>2016-04-10T08:31:42Z</time>
      </trkpt>
      <trkpt lat="42.8831" lon="0.27066">
        <ele>2202</ele>
        <time>2016-04-10T08:31:57Z</time>
      </trkpt>
      <trkpt lat="42.88305" lon="0.27064">
        <ele>2202</ele>
        <time>2016-04-10T08:32:21Z</time>
      </trkpt>
      <trkpt lat="42.88299" lon="0.27066">
        <ele>2204</ele>
        <time>2016-04-10T08:32:35Z</time>
      </trkpt>
      <trkpt lat="42.883" lon="0.27073">
        <ele>2204</ele>
        <time>2016-04-10T08:32:40Z</time>
      </trkpt>
      <trkpt lat="42.883" lon="0.27077">
        <ele>2205</ele>
        <time>2016-04-10T08:32:50Z</time>
      </trkpt>
      <trkpt lat="42.88296" lon="0.27079">
        <ele>2206</ele>
        <time>2016-04-10T08:32:55Z</time>
      </trkpt>
      <trkpt lat="42.88292" lon="0.27083">
        <ele>2207</ele>
        <time>2016-04-10T08:33:02Z</time>
      </trkpt>
      <trkpt lat="42.88281" lon="0.27103">
        <ele>2213</ele>
        <time>2016-04-10T08:33:40Z</time>
      </trkpt>
      <trkpt lat="42.88278" lon="0.27108">
        <ele>2214</ele>
        <time>2016-04-10T08:33:49Z</time>
      </trkpt>
      <trkpt lat="42.88279" lon="0.27111">
        <ele>2214</ele>
        <time>2016-04-10T08:33:55Z</time>
      </trkpt>
      <trkpt lat="42.88281" lon="0.27119">
        <ele>2217</ele>
        <time>2016-04-10T08:34:09Z</time>
      </trkpt>
      <trkpt lat="42.88284" lon="0.2712">
        <ele>2218</ele>
        <time>2016-04-10T08:34:16Z</time>
      </trkpt>
      <trkpt lat="42.88287" lon="0.27126">
        <ele>2221</ele>
        <time>2016-04-10T08:34:30Z</time>
      </trkpt>
      <trkpt lat="42.88281" lon="0.2715">
        <ele>2228</ele>
        <time>2016-04-10T08:35:00Z</time>
      </trkpt>
      <trkpt lat="42.88279" lon="0.27155">
        <ele>2229</ele>
        <time>2016-04-10T08:35:07Z</time>
      </trkpt>
      <trkpt lat="42.8827" lon="0.27164">
        <ele>2232</ele>
        <time>2016-04-10T08:35:24Z</time>
      </trkpt>
      <trkpt lat="42.88273" lon="0.27166">
        <ele>2234</ele>
        <time>2016-04-10T08:35:35Z</time>
      </trkpt>
      <trkpt lat="42.88273" lon="0.27173">
        <ele>2234</ele>
        <time>2016-04-10T08:35:48Z</time>
      </trkpt>
      <trkpt lat="42.88272" lon="0.27176">
        <ele>2236</ele>
        <time>2016-04-10T08:40:44Z</time>
      </trkpt>
      <trkpt lat="42.88271" lon="0.27183">
        <ele>2236</ele>
        <time>2016-04-10T08:40:51Z</time>
      </trkpt>
      <trkpt lat="42.88261" lon="0.27221">
        <ele>2241</ele>
        <time>2016-04-10T08:41:27Z</time>
      </trkpt>
      <trkpt lat="42.88251" lon="0.27236">
        <ele>2247</ele>
        <time>2016-04-10T08:41:54Z</time>
      </trkpt>
      <trkpt lat="42.88237" lon="0.27242">
        <ele>2250</ele>
        <time>2016-04-10T08:42:18Z</time>
      </trkpt>
      <trkpt lat="42.8824" lon="0.27254">
        <ele>2252</ele>
        <time>2016-04-10T08:42:53Z</time>
      </trkpt>
      <trkpt lat="42.8824" lon="0.27267">
        <ele>2255</ele>
        <time>2016-04-10T08:43:11Z</time>
      </trkpt>
      <trkpt lat="42.88236" lon="0.27272">
        <ele>2256</ele>
        <time>2016-04-10T08:43:19Z</time>
      </trkpt>
      <trkpt lat="42.88228" lon="0.27275">
        <ele>2257</ele>
        <time>2016-04-10T08:43:31Z</time>
      </trkpt>
      <trkpt lat="42.88228" lon="0.27283">
        <ele>2259</ele>
        <time>2016-04-10T08:43:49Z</time>
      </trkpt>
      <trkpt lat="42.8823" lon="0.27288">
        <ele>2261</ele>
        <time>2016-04-10T08:43:58Z</time>
      </trkpt>
      <trkpt lat="42.8823" lon="0.27291">
        <ele>2262</ele>
        <time>2016-04-10T08:44:04Z</time>
      </trkpt>
      <trkpt lat="42.88222" lon="0.27299">
        <ele>2266</ele>
        <time>2016-04-10T08:45:16Z</time>
      </trkpt>
      <trkpt lat="42.88206" lon="0.27303">
        <ele>2270</ele>
        <time>2016-04-10T08:45:44Z</time>
      </trkpt>
      <trkpt lat="42.88202" lon="0.27316">
        <ele>2271</ele>
        <time>2016-04-10T08:46:06Z</time>
      </trkpt>
      <trkpt lat="42.88202" lon="0.27329">
        <ele>2275</ele>
        <time>2016-04-10T08:46:23Z</time>
      </trkpt>
      <trkpt lat="42.8819" lon="0.27349">
        <ele>2281</ele>
        <time>2016-04-10T08:46:59Z</time>
      </trkpt>
      <trkpt lat="42.88194" lon="0.27357">
        <ele>2283</ele>
        <time>2016-04-10T08:47:13Z</time>
      </trkpt>
      <trkpt lat="42.88194" lon="0.27364">
        <ele>2286</ele>
        <time>2016-04-10T08:47:26Z</time>
      </trkpt>
      <trkpt lat="42.88195" lon="0.27375">
        <ele>2288</ele>
        <time>2016-04-10T08:47:51Z</time>
      </trkpt>
      <trkpt lat="42.88191" lon="0.27381">
        <ele>2290</ele>
        <time>2016-04-10T08:50:29Z</time>
      </trkpt>
      <trkpt lat="42.88189" lon="0.27386">
        <ele>2294</ele>
        <time>2016-04-10T08:50:47Z</time>
      </trkpt>
      <trkpt lat="42.8819" lon="0.27403">
        <ele>2299</ele>
        <time>2016-04-10T08:51:20Z</time>
      </trkpt>
      <trkpt lat="42.88182" lon="0.27408">
        <ele>2303</ele>
        <time>2016-04-10T08:51:36Z</time>
      </trkpt>
      <trkpt lat="42.88172" lon="0.27409">
        <ele>2305</ele>
        <time>2016-04-10T08:51:47Z</time>
      </trkpt>
      <trkpt lat="42.88165" lon="0.27415">
        <ele>2307</ele>
        <time>2016-04-10T08:52:06Z</time>
      </trkpt>
      <trkpt lat="42.88165" lon="0.27428">
        <ele>2312</ele>
        <time>2016-04-10T08:52:36Z</time>
      </trkpt>
      <trkpt lat="42.88159" lon="0.27437">
        <ele>2315</ele>
        <time>2016-04-10T08:53:04Z</time>
      </trkpt>
      <trkpt lat="42.88149" lon="0.27438">
        <ele>2318</ele>
        <time>2016-04-10T08:53:13Z</time>
      </trkpt>
      <trkpt lat="42.88145" lon="0.27441">
        <ele>2322</ele>
        <time>2016-04-10T08:53:49Z</time>
      </trkpt>
      <trkpt lat="42.8814" lon="0.27444">
        <ele>2324</ele>
        <time>2016-04-10T08:54:07Z</time>
      </trkpt>
      <trkpt lat="42.88137" lon="0.2745">
        <ele>2329</ele>
        <time>2016-04-10T08:56:14Z</time>
      </trkpt>
      <trkpt lat="42.88133" lon="0.27455">
        <ele>2332</ele>
        <time>2016-04-10T08:56:31Z</time>
      </trkpt>
      <trkpt lat="42.88132" lon="0.27464">
        <ele>2333</ele>
        <time>2016-04-10T08:56:49Z</time>
      </trkpt>
      <trkpt lat="42.88135" lon="0.27471">
        <ele>2335</ele>
        <time>2016-04-10T08:57:09Z</time>
      </trkpt>
      <trkpt lat="42.88125" lon="0.27473">
        <ele>2339</ele>
        <time>2016-04-10T08:57:29Z</time>
      </trkpt>
      <trkpt lat="42.88109" lon="0.27475">
        <ele>2345</ele>
        <time>2016-04-10T08:58:01Z</time>
      </trkpt>
      <trkpt lat="42.88104" lon="0.27477">
        <ele>2347</ele>
        <time>2016-04-10T08:58:35Z</time>
      </trkpt>
      <trkpt lat="42.88101" lon="0.27485">
        <ele>2350</ele>
        <time>2016-04-10T08:59:01Z</time>
      </trkpt>
      <trkpt lat="42.88096" lon="0.27488">
        <ele>2355</ele>
        <time>2016-04-10T08:59:35Z</time>
      </trkpt>
      <trkpt lat="42.88077" lon="0.27488">
        <ele>2362</ele>
        <time>2016-04-10T09:00:08Z</time>
      </trkpt>
      <trkpt lat="42.88079" lon="0.27497">
        <ele>2364</ele>
        <time>2016-04-10T09:00:24Z</time>
      </trkpt>
      <trkpt lat="42.8807" lon="0.27502">
        <ele>2367</ele>
        <time>2016-04-10T09:01:04Z</time>
      </trkpt>
      <trkpt lat="42.88067" lon="0.27508">
        <ele>2372</ele>
        <time>2016-04-10T09:01:32Z</time>
      </trkpt>
      <trkpt lat="42.88066" lon="0.27519">
        <ele>2380</ele>
        <time>2016-04-10T09:02:02Z</time>
      </trkpt>
      <trkpt lat="42.88068" lon="0.27526">
        <ele>2381</ele>
        <time>2016-04-10T09:02:15Z</time>
      </trkpt>
      <trkpt lat="42.88055" lon="0.27528">
        <ele>2388</ele>
        <time>2016-04-10T09:03:05Z</time>
      </trkpt>
      <trkpt lat="42.88047" lon="0.27521">
        <ele>2390</ele>
        <time>2016-04-10T09:03:19Z</time>
      </trkpt>
      <trkpt lat="42.88041" lon="0.27524">
        <ele>2394</ele>
        <time>2016-04-10T09:03:41Z</time>
      </trkpt>
      <trkpt lat="42.8804" lon="0.27531">
        <ele>2395</ele>
        <time>2016-04-10T09:03:58Z</time>
      </trkpt>
      <trkpt lat="42.88036" lon="0.27531">
        <ele>2397</ele>
        <time>2016-04-10T09:04:20Z</time>
      </trkpt>
      <trkpt lat="42.88031" lon="0.2753">
        <ele>2400</ele>
        <time>2016-04-10T09:05:06Z</time>
      </trkpt>
      <trkpt lat="42.88023" lon="0.27538">
        <ele>2407</ele>
        <time>2016-04-10T09:05:22Z</time>
      </trkpt>
      <trkpt lat="42.88014" lon="0.27533">
        <ele>2409</ele>
        <time>2016-04-10T09:05:35Z</time>
      </trkpt>
      <trkpt lat="42.88006" lon="0.27524">
        <ele>2413</ele>
        <time>2016-04-10T09:06:00Z</time>
      </trkpt>
      <trkpt lat="42.88002" lon="0.2753">
        <ele>2417</ele>
        <time>2016-04-10T09:06:41Z</time>
      </trkpt>
      <trkpt lat="42.88001" lon="0.27536">
        <ele>2422</ele>
        <time>2016-04-10T09:06:53Z</time>
      </trkpt>
      <trkpt lat="42.87998" lon="0.27541">
        <ele>2423</ele>
        <time>2016-04-10T09:07:01Z</time>
      </trkpt>
      <trkpt lat="42.87998" lon="0.27547">
        <ele>2426</ele>
        <time>2016-04-10T09:07:12Z</time>
      </trkpt>
      <trkpt lat="42.87996" lon="0.27553">
        <ele>2429</ele>
        <time>2016-04-10T09:07:40Z</time>
      </trkpt>
      <trkpt lat="42.87986" lon="0.27548">
        <ele>2434</ele>
        <time>2016-04-10T09:08:47Z</time>
      </trkpt>
      <trkpt lat="42.87982" lon="0.27544">
        <ele>2435</ele>
        <time>2016-04-10T09:08:58Z</time>
      </trkpt>
      <trkpt lat="42.87977" lon="0.27545">
        <ele>2443</ele>
        <time>2016-04-10T09:10:14Z</time>
      </trkpt>
      <trkpt lat="42.87976" lon="0.27548">
        <ele>2443</ele>
        <time>2016-04-10T09:10:24Z</time>
      </trkpt>
      <trkpt lat="42.87968" lon="0.27544">
        <ele>2444</ele>
        <time>2016-04-10T09:10:35Z</time>
      </trkpt>
      <trkpt lat="42.87963" lon="0.27548">
        <ele>2450</ele>
        <time>2016-04-10T09:11:11Z</time>
      </trkpt>
      <trkpt lat="42.87956" lon="0.27547">
        <ele>2451</ele>
        <time>2016-04-10T09:11:34Z</time>
      </trkpt>
      <trkpt lat="42.87955" lon="0.27542">
        <ele>2454</ele>
        <time>2016-04-10T09:12:38Z</time>
      </trkpt>
      <trkpt lat="42.87945" lon="0.27541">
        <ele>2456</ele>
        <time>2016-04-10T09:12:59Z</time>
      </trkpt>
      <trkpt lat="42.87941" lon="0.27546">
        <ele>2470</ele>
        <time>2016-04-10T09:13:48Z</time>
      </trkpt>
      <trkpt lat="42.87948" lon="0.27553">
        <ele>2472</ele>
        <time>2016-04-10T09:14:04Z</time>
      </trkpt>
      <trkpt lat="42.87946" lon="0.27556">
        <ele>2476</ele>
        <time>2016-04-10T09:14:16Z</time>
      </trkpt>
      <trkpt lat="42.87929" lon="0.27558">
        <ele>2481</ele>
        <time>2016-04-10T09:14:48Z</time>
      </trkpt>
      <trkpt lat="42.8792" lon="0.27551">
        <ele>2482</ele>
        <time>2016-04-10T09:15:06Z</time>
      </trkpt>
      <trkpt lat="42.87913" lon="0.2754">
        <ele>2485</ele>
        <time>2016-04-10T09:15:34Z</time>
      </trkpt>
      <trkpt lat="42.8791" lon="0.27543">
        <ele>2489</ele>
        <time>2016-04-10T09:16:07Z</time>
      </trkpt>
      <trkpt lat="42.87907" lon="0.27546">
        <ele>2490</ele>
        <time>2016-04-10T09:16:16Z</time>
      </trkpt>
      <trkpt lat="42.87907" lon="0.27552">
        <ele>2493</ele>
        <time>2016-04-10T09:16:26Z</time>
      </trkpt>
      <trkpt lat="42.87902" lon="0.2755">
        <ele>2495</ele>
        <time>2016-04-10T09:16:59Z</time>
      </trkpt>
      <trkpt lat="42.8789" lon="0.27538">
        <ele>2501</ele>
        <time>2016-04-10T09:17:32Z</time>
      </trkpt>
      <trkpt lat="42.87889" lon="0.27544">
        <ele>2508</ele>
        <time>2016-04-10T09:18:26Z</time>
      </trkpt>
      <trkpt lat="42.8789" lon="0.27548">
        <ele>2508</ele>
        <time>2016-04-10T09:18:36Z</time>
      </trkpt>
      <trkpt lat="42.87886" lon="0.27548">
        <ele>2512</ele>
        <time>2016-04-10T09:19:00Z</time>
      </trkpt>
      <trkpt lat="42.87868" lon="0.27544">
        <ele>2515</ele>
        <time>2016-04-10T09:19:20Z</time>
      </trkpt>
      <trkpt lat="42.87866" lon="0.27541">
        <ele>2517</ele>
        <time>2016-04-10T09:20:14Z</time>
      </trkpt>
      <trkpt lat="42.87863" lon="0.27547">
        <ele>2519</ele>
        <time>2016-04-10T09:20:51Z</time>
      </trkpt>
      <trkpt lat="42.87866" lon="0.27564">
        <ele>2520</ele>
        <time>2016-04-10T09:21:12Z</time>
      </trkpt>
      <trkpt lat="42.87861" lon="0.27565">
        <ele>2529</ele>
        <time>2016-04-10T09:23:14Z</time>
      </trkpt>
      <trkpt lat="42.87854" lon="0.27556">
        <ele>2531</ele>
        <time>2016-04-10T09:23:22Z</time>
      </trkpt>
      <trkpt lat="42.87855" lon="0.2756">
        <ele>2536</ele>
        <time>2016-04-10T09:23:56Z</time>
      </trkpt>
      <trkpt lat="42.87856" lon="0.27558">
        <ele>2539</ele>
        <time>2016-04-10T09:24:56Z</time>
      </trkpt>
      <trkpt lat="42.87847" lon="0.27555">
        <ele>2541</ele>
        <time>2016-04-10T09:25:27Z</time>
      </trkpt>
      <trkpt lat="42.87846" lon="0.27558">
        <ele>2542</ele>
        <time>2016-04-10T09:25:55Z</time>
      </trkpt>
      <trkpt lat="42.87844" lon="0.27562">
        <ele>2543</ele>
        <time>2016-04-10T09:26:42Z</time>
      </trkpt>
      <trkpt lat="42.87839" lon="0.27559">
        <ele>2545</ele>
        <time>2016-04-10T09:26:48Z</time>
      </trkpt>
      <trkpt lat="42.87838" lon="0.27563">
        <ele>2547</ele>
        <time>2016-04-10T09:27:11Z</time>
      </trkpt>
      <trkpt lat="42.87834" lon="0.27562">
        <ele>2547</ele>
        <time>2016-04-10T09:27:43Z</time>
      </trkpt>
      <trkpt lat="42.8783" lon="0.27559">
        <ele>2547</ele>
        <time>2016-04-10T09:27:52Z</time>
      </trkpt>
      <trkpt lat="42.87828" lon="0.2756">
        <ele>2551</ele>
        <time>2016-04-10T09:28:30Z</time>
      </trkpt>
      <trkpt lat="42.87819" lon="0.27557">
        <ele>2553</ele>
        <time>2016-04-10T09:28:53Z</time>
      </trkpt>
      <trkpt lat="42.87822" lon="0.27553">
        <ele>2560</ele>
        <time>2016-04-10T09:29:33Z</time>
      </trkpt>
      <trkpt lat="42.87824" lon="0.27553">
        <ele>2561</ele>
        <time>2016-04-10T09:31:37Z</time>
      </trkpt>
      <trkpt lat="42.87822" lon="0.27555">
        <ele>2569</ele>
        <time>2016-04-10T09:33:57Z</time>
      </trkpt>
      <trkpt lat="42.87817" lon="0.27557">
        <ele>2571</ele>
        <time>2016-04-10T09:34:06Z</time>
      </trkpt>
      <trkpt lat="42.87815" lon="0.27561">
        <ele>2575</ele>
        <time>2016-04-10T09:34:27Z</time>
      </trkpt>
      <trkpt lat="42.87812" lon="0.27561">
        <ele>2576</ele>
        <time>2016-04-10T09:34:51Z</time>
      </trkpt>
      <trkpt lat="42.87812" lon="0.27561">
        <ele>2574</ele>
        <time>2016-04-10T09:50:24Z</time>
      </trkpt>
      <trkpt lat="42.87816" lon="0.27556">
        <ele>2574</ele>
        <time>2016-04-10T09:56:09Z</time>
      </trkpt>
      <trkpt lat="42.8782" lon="0.27551">
        <ele>2572</ele>
        <time>2016-04-10T09:56:13Z</time>
      </trkpt>
      <trkpt lat="42.87824" lon="0.27551">
        <ele>2567</ele>
        <time>2016-04-10T09:59:45Z</time>
      </trkpt>
      <trkpt lat="42.87831" lon="0.27551">
        <ele>2563</ele>
        <time>2016-04-10T10:01:21Z</time>
      </trkpt>
      <trkpt lat="42.87837" lon="0.27552">
        <ele>2559</ele>
        <time>2016-04-10T10:01:28Z</time>
      </trkpt>
      <trkpt lat="42.8784" lon="0.27547">
        <ele>2555</ele>
        <time>2016-04-10T10:01:33Z</time>
      </trkpt>
      <trkpt lat="42.87845" lon="0.27548">
        <ele>2550</ele>
        <time>2016-04-10T10:01:47Z</time>
      </trkpt>
      <trkpt lat="42.8785" lon="0.27551">
        <ele>2548</ele>
        <time>2016-04-10T10:01:52Z</time>
      </trkpt>
      <trkpt lat="42.87854" lon="0.27547">
        <ele>2541</ele>
        <time>2016-04-10T10:02:01Z</time>
      </trkpt>
      <trkpt lat="42.87879" lon="0.27526">
        <ele>2532</ele>
        <time>2016-04-10T10:02:11Z</time>
      </trkpt>
      <trkpt lat="42.87891" lon="0.27536">
        <ele>2526</ele>
        <time>2016-04-10T10:02:15Z</time>
      </trkpt>
      <trkpt lat="42.87898" lon="0.27534">
        <ele>2514</ele>
        <time>2016-04-10T10:02:45Z</time>
      </trkpt>
      <trkpt lat="42.87934" lon="0.27538">
        <ele>2490</ele>
        <time>2016-04-10T10:02:56Z</time>
      </trkpt>
      <trkpt lat="42.87938" lon="0.27529">
        <ele>2487</ele>
        <time>2016-04-10T10:02:57Z</time>
      </trkpt>
      <trkpt lat="42.87943" lon="0.27526">
        <ele>2484</ele>
        <time>2016-04-10T10:02:58Z</time>
      </trkpt>
      <trkpt lat="42.87958" lon="0.27517">
        <ele>2473</ele>
        <time>2016-04-10T10:03:02Z</time>
      </trkpt>
      <trkpt lat="42.87966" lon="0.27525">
        <ele>2469</ele>
        <time>2016-04-10T10:03:03Z</time>
      </trkpt>
      <trkpt lat="42.87979" lon="0.27529">
        <ele>2458</ele>
        <time>2016-04-10T10:03:07Z</time>
      </trkpt>
      <trkpt lat="42.87985" lon="0.27527">
        <ele>2449</ele>
        <time>2016-04-10T10:03:15Z</time>
      </trkpt>
      <trkpt lat="42.87988" lon="0.27528">
        <ele>2442</ele>
        <time>2016-04-10T10:04:15Z</time>
      </trkpt>
      <trkpt lat="42.87993" lon="0.27526">
        <ele>2442</ele>
        <time>2016-04-10T10:04:17Z</time>
      </trkpt>
      <trkpt lat="42.88076" lon="0.27484">
        <ele>2388</ele>
        <time>2016-04-10T10:04:39Z</time>
      </trkpt>
      <trkpt lat="42.88087" lon="0.27465">
        <ele>2382</ele>
        <time>2016-04-10T10:04:41Z</time>
      </trkpt>
      <trkpt lat="42.8816" lon="0.27451">
        <ele>2337</ele>
        <time>2016-04-10T10:05:04Z</time>
      </trkpt>
      <trkpt lat="42.88168" lon="0.27435">
        <ele>2330</ele>
        <time>2016-04-10T10:05:09Z</time>
      </trkpt>
      <trkpt lat="42.88164" lon="0.27426">
        <ele>2321</ele>
        <time>2016-04-10T10:05:22Z</time>
      </trkpt>
      <trkpt lat="42.88169" lon="0.27422">
        <ele>2317</ele>
        <time>2016-04-10T10:06:33Z</time>
      </trkpt>
      <trkpt lat="42.8817" lon="0.27413">
        <ele>2317</ele>
        <time>2016-04-10T10:06:36Z</time>
      </trkpt>
      <trkpt lat="42.8817" lon="0.274">
        <ele>2311</ele>
        <time>2016-04-10T10:06:40Z</time>
      </trkpt>
      <trkpt lat="42.88183" lon="0.27364">
        <ele>2305</ele>
        <time>2016-04-10T10:06:44Z</time>
      </trkpt>
      <trkpt lat="42.88192" lon="0.27362">
        <ele>2303</ele>
        <time>2016-04-10T10:06:45Z</time>
      </trkpt>
      <trkpt lat="42.88196" lon="0.27365">
        <ele>2301</ele>
        <time>2016-04-10T10:06:46Z</time>
      </trkpt>
      <trkpt lat="42.88201" lon="0.27358">
        <ele>2298</ele>
        <time>2016-04-10T10:06:48Z</time>
      </trkpt>
      <trkpt lat="42.88213" lon="0.27332">
        <ele>2292</ele>
        <time>2016-04-10T10:06:51Z</time>
      </trkpt>
      <trkpt lat="42.88208" lon="0.27302">
        <ele>2284</ele>
        <time>2016-04-10T10:06:55Z</time>
      </trkpt>
      <trkpt lat="42.88213" lon="0.2729">
        <ele>2281</ele>
        <time>2016-04-10T10:06:57Z</time>
      </trkpt>
      <trkpt lat="42.88218" lon="0.27286">
        <ele>2279</ele>
        <time>2016-04-10T10:06:58Z</time>
      </trkpt>
      <trkpt lat="42.88224" lon="0.27272">
        <ele>2275</ele>
        <time>2016-04-10T10:07:01Z</time>
      </trkpt>
      <trkpt lat="42.88229" lon="0.27273">
        <ele>2274</ele>
        <time>2016-04-10T10:07:03Z</time>
      </trkpt>
      <trkpt lat="42.88237" lon="0.27266">
        <ele>2271</ele>
        <time>2016-04-10T10:07:05Z</time>
      </trkpt>
      <trkpt lat="42.88249" lon="0.27263">
        <ele>2265</ele>
        <time>2016-04-10T10:07:15Z</time>
      </trkpt>
      <trkpt lat="42.88251" lon="0.27255">
        <ele>2257</ele>
        <time>2016-04-10T10:08:34Z</time>
      </trkpt>
      <trkpt lat="42.88258" lon="0.27238">
        <ele>2255</ele>
        <time>2016-04-10T10:08:38Z</time>
      </trkpt>
      <trkpt lat="42.88265" lon="0.27235">
        <ele>2255</ele>
        <time>2016-04-10T10:08:39Z</time>
      </trkpt>
      <trkpt lat="42.88291" lon="0.27189">
        <ele>2249</ele>
        <time>2016-04-10T10:08:47Z</time>
      </trkpt>
      <trkpt lat="42.88296" lon="0.27179">
        <ele>2245</ele>
        <time>2016-04-10T10:09:08Z</time>
      </trkpt>
      <trkpt lat="42.88295" lon="0.27175">
        <ele>2243</ele>
        <time>2016-04-10T10:09:20Z</time>
      </trkpt>
      <trkpt lat="42.88289" lon="0.27178">
        <ele>2242</ele>
        <time>2016-04-10T10:09:24Z</time>
      </trkpt>
      <trkpt lat="42.88283" lon="0.27178">
        <ele>2241</ele>
        <time>2016-04-10T10:09:26Z</time>
      </trkpt>
      <trkpt lat="42.8828" lon="0.27175">
        <ele>2240</ele>
        <time>2016-04-10T10:09:27Z</time>
      </trkpt>
      <trkpt lat="42.88278" lon="0.2717">
        <ele>2239</ele>
        <time>2016-04-10T10:09:28Z</time>
      </trkpt>
      <trkpt lat="42.88278" lon="0.27167">
        <ele>2239</ele>
        <time>2016-04-10T10:09:29Z</time>
      </trkpt>
      <trkpt lat="42.8828" lon="0.27163">
        <ele>2236</ele>
        <time>2016-04-10T10:09:38Z</time>
      </trkpt>
      <trkpt lat="42.88284" lon="0.27156">
        <ele>2234</ele>
        <time>2016-04-10T10:10:23Z</time>
      </trkpt>
      <trkpt lat="42.88288" lon="0.27148">
        <ele>2234</ele>
        <time>2016-04-10T10:10:25Z</time>
      </trkpt>
      <trkpt lat="42.88292" lon="0.27132">
        <ele>2233</ele>
        <time>2016-04-10T10:10:28Z</time>
      </trkpt>
      <trkpt lat="42.88288" lon="0.27116">
        <ele>2231</ele>
        <time>2016-04-10T10:10:30Z</time>
      </trkpt>
      <trkpt lat="42.8827" lon="0.27078">
        <ele>2226</ele>
        <time>2016-04-10T10:10:35Z</time>
      </trkpt>
      <trkpt lat="42.88274" lon="0.27067">
        <ele>2221</ele>
        <time>2016-04-10T10:10:41Z</time>
      </trkpt>
      <trkpt lat="42.88284" lon="0.27067">
        <ele>2220</ele>
        <time>2016-04-10T10:10:43Z</time>
      </trkpt>
      <trkpt lat="42.88294" lon="0.27078">
        <ele>2217</ele>
        <time>2016-04-10T10:10:45Z</time>
      </trkpt>
      <trkpt lat="42.883" lon="0.27079">
        <ele>2216</ele>
        <time>2016-04-10T10:10:46Z</time>
      </trkpt>
      <trkpt lat="42.88305" lon="0.27074">
        <ele>2215</ele>
        <time>2016-04-10T10:10:48Z</time>
      </trkpt>
      <trkpt lat="42.88311" lon="0.27074">
        <ele>2213</ele>
        <time>2016-04-10T10:10:50Z</time>
      </trkpt>
      <trkpt lat="42.88318" lon="0.27073">
        <ele>2208</ele>
        <time>2016-04-10T10:11:21Z</time>
      </trkpt>
      <trkpt lat="42.88316" lon="0.27065">
        <ele>2207</ele>
        <time>2016-04-10T10:14:20Z</time>
      </trkpt>
      <trkpt lat="42.88313" lon="0.27064">
        <ele>2207</ele>
        <time>2016-04-10T10:14:21Z</time>
      </trkpt>
      <trkpt lat="42.8831" lon="0.27064">
        <ele>2207</ele>
        <time>2016-04-10T10:14:22Z</time>
      </trkpt>
      <trkpt lat="42.88298" lon="0.27051">
        <ele>2199</ele>
        <time>2016-04-10T10:14:59Z</time>
      </trkpt>
      <trkpt lat="42.88297" lon="0.27046">
        <ele>2199</ele>
        <time>2016-04-10T10:15:01Z</time>
      </trkpt>
      <trkpt lat="42.88199" lon="0.26823">
        <ele>2163</ele>
        <time>2016-04-10T10:15:31Z</time>
      </trkpt>
      <trkpt lat="42.88196" lon="0.26818">
        <ele>2160</ele>
        <time>2016-04-10T10:15:38Z</time>
      </trkpt>
      <trkpt lat="42.88185" lon="0.26748">
        <ele>2153</ele>
        <time>2016-04-10T10:16:10Z</time>
      </trkpt>
      <trkpt lat="42.88186" lon="0.26722">
        <ele>2153</ele>
        <time>2016-04-10T10:17:25Z</time>
      </trkpt>
      <trkpt lat="42.88185" lon="0.2672">
        <ele>2152</ele>
        <time>2016-04-10T10:56:06Z</time>
      </trkpt>
      <trkpt lat="42.88184" lon="0.26707">
        <ele>2152</ele>
        <time>2016-04-10T10:56:22Z</time>
      </trkpt>
      <trkpt lat="42.88195" lon="0.26672">
        <ele>2158</ele>
        <time>2016-04-10T10:56:54Z</time>
      </trkpt>
      <trkpt lat="42.88197" lon="0.26664">
        <ele>2160</ele>
        <time>2016-04-10T10:57:07Z</time>
      </trkpt>
      <trkpt lat="42.88203" lon="0.26656">
        <ele>2162</ele>
        <time>2016-04-10T10:57:39Z</time>
      </trkpt>
      <trkpt lat="42.88215" lon="0.26635">
        <ele>2165</ele>
        <time>2016-04-10T10:58:00Z</time>
      </trkpt>
      <trkpt lat="42.88239" lon="0.26618">
        <ele>2169</ele>
        <time>2016-04-10T10:58:41Z</time>
      </trkpt>
      <trkpt lat="42.88234" lon="0.26614">
        <ele>2172</ele>
        <time>2016-04-10T10:59:12Z</time>
      </trkpt>
      <trkpt lat="42.88218" lon="0.26613">
        <ele>2175</ele>
        <time>2016-04-10T10:59:41Z</time>
      </trkpt>
      <trkpt lat="42.88211" lon="0.26606">
        <ele>2181</ele>
        <time>2016-04-10T10:59:55Z</time>
      </trkpt>
      <trkpt lat="42.8819" lon="0.26605">
        <ele>2187</ele>
        <time>2016-04-10T11:00:27Z</time>
      </trkpt>
      <trkpt lat="42.88182" lon="0.26597">
        <ele>2189</ele>
        <time>2016-04-10T11:00:43Z</time>
      </trkpt>
      <trkpt lat="42.88166" lon="0.26594">
        <ele>2191</ele>
        <time>2016-04-10T11:00:58Z</time>
      </trkpt>
      <trkpt lat="42.88161" lon="0.26582">
        <ele>2193</ele>
        <time>2016-04-10T11:01:29Z</time>
      </trkpt>
      <trkpt lat="42.8817" lon="0.26576">
        <ele>2194</ele>
        <time>2016-04-10T11:01:39Z</time>
      </trkpt>
      <trkpt lat="42.88196" lon="0.26559">
        <ele>2198</ele>
        <time>2016-04-10T11:02:12Z</time>
      </trkpt>
      <trkpt lat="42.88204" lon="0.26553">
        <ele>2200</ele>
        <time>2016-04-10T11:02:26Z</time>
      </trkpt>
      <trkpt lat="42.88212" lon="0.26546">
        <ele>2205</ele>
        <time>2016-04-10T11:02:44Z</time>
      </trkpt>
      <trkpt lat="42.8822" lon="0.26539">
        <ele>2205</ele>
        <time>2016-04-10T11:02:58Z</time>
      </trkpt>
      <trkpt lat="42.88233" lon="0.26517">
        <ele>2208</ele>
        <time>2016-04-10T11:03:33Z</time>
      </trkpt>
      <trkpt lat="42.8824" lon="0.26508">
        <ele>2209</ele>
        <time>2016-04-10T11:03:46Z</time>
      </trkpt>
      <trkpt lat="42.88239" lon="0.26501">
        <ele>2210</ele>
        <time>2016-04-10T11:03:57Z</time>
      </trkpt>
      <trkpt lat="42.8823" lon="0.26502">
        <ele>2212</ele>
        <time>2016-04-10T11:04:14Z</time>
      </trkpt>
      <trkpt lat="42.88211" lon="0.26504">
        <ele>2219</ele>
        <time>2016-04-10T11:04:49Z</time>
      </trkpt>
      <trkpt lat="42.88202" lon="0.26504">
        <ele>2221</ele>
        <time>2016-04-10T11:05:05Z</time>
      </trkpt>
      <trkpt lat="42.88187" lon="0.2649">
        <ele>2226</ele>
        <time>2016-04-10T11:05:37Z</time>
      </trkpt>
      <trkpt lat="42.88169" lon="0.26482">
        <ele>2232</ele>
        <time>2016-04-10T11:06:11Z</time>
      </trkpt>
      <trkpt lat="42.8817" lon="0.26471">
        <ele>2237</ele>
        <time>2016-04-10T11:06:40Z</time>
      </trkpt>
      <trkpt lat="42.88178" lon="0.26464">
        <ele>2238</ele>
        <time>2016-04-10T11:06:51Z</time>
      </trkpt>
      <trkpt lat="42.88186" lon="0.26466">
        <ele>2241</ele>
        <time>2016-04-10T11:07:09Z</time>
      </trkpt>
      <trkpt lat="42.88192" lon="0.26455">
        <ele>2244</ele>
        <time>2016-04-10T11:07:29Z</time>
      </trkpt>
      <trkpt lat="42.88199" lon="0.26432">
        <ele>2249</ele>
        <time>2016-04-10T11:07:55Z</time>
      </trkpt>
      <trkpt lat="42.88207" lon="0.26424">
        <ele>2251</ele>
        <time>2016-04-10T11:08:12Z</time>
      </trkpt>
      <trkpt lat="42.882" lon="0.26429">
        <ele>2254</ele>
        <time>2016-04-10T11:08:46Z</time>
      </trkpt>
      <trkpt lat="42.88193" lon="0.26421">
        <ele>2257</ele>
        <time>2016-04-10T11:09:22Z</time>
      </trkpt>
      <trkpt lat="42.88191" lon="0.26412">
        <ele>2264</ele>
        <time>2016-04-10T11:10:04Z</time>
      </trkpt>
      <trkpt lat="42.88195" lon="0.26401">
        <ele>2265</ele>
        <time>2016-04-10T11:10:17Z</time>
      </trkpt>
      <trkpt lat="42.88198" lon="0.26395">
        <ele>2270</ele>
        <time>2016-04-10T11:10:57Z</time>
      </trkpt>
      <trkpt lat="42.88199" lon="0.26384">
        <ele>2273</ele>
        <time>2016-04-10T11:11:54Z</time>
      </trkpt>
      <trkpt lat="42.88183" lon="0.2638">
        <ele>2281</ele>
        <time>2016-04-10T11:12:40Z</time>
      </trkpt>
      <trkpt lat="42.8816" lon="0.26384">
        <ele>2290</ele>
        <time>2016-04-10T11:13:19Z</time>
      </trkpt>
      <trkpt lat="42.88166" lon="0.26377">
        <ele>2292</ele>
        <time>2016-04-10T11:13:42Z</time>
      </trkpt>
      <trkpt lat="42.88163" lon="0.2637">
        <ele>2293</ele>
        <time>2016-04-10T11:13:57Z</time>
      </trkpt>
      <trkpt lat="42.88166" lon="0.26356">
        <ele>2296</ele>
        <time>2016-04-10T11:14:18Z</time>
      </trkpt>
      <trkpt lat="42.88175" lon="0.26352">
        <ele>2300</ele>
        <time>2016-04-10T11:14:33Z</time>
      </trkpt>
      <trkpt lat="42.88175" lon="0.26347">
        <ele>2303</ele>
        <time>2016-04-10T11:15:20Z</time>
      </trkpt>
      <trkpt lat="42.8817" lon="0.26347">
        <ele>2302</ele>
        <time>2016-04-10T11:15:27Z</time>
      </trkpt>
      <trkpt lat="42.88167" lon="0.26347">
        <ele>2302</ele>
        <time>2016-04-10T11:15:33Z</time>
      </trkpt>
      <trkpt lat="42.88163" lon="0.26344">
        <ele>2303</ele>
        <time>2016-04-10T11:15:42Z</time>
      </trkpt>
      <trkpt lat="42.88162" lon="0.26339">
        <ele>2300</ele>
        <time>2016-04-10T11:15:51Z</time>
      </trkpt>
      <trkpt lat="42.88157" lon="0.26338">
        <ele>2298</ele>
        <time>2016-04-10T11:15:58Z</time>
      </trkpt>
      <trkpt lat="42.88153" lon="0.26331">
        <ele>2298</ele>
        <time>2016-04-10T11:16:05Z</time>
      </trkpt>
      <trkpt lat="42.88151" lon="0.26328">
        <ele>2298</ele>
        <time>2016-04-10T11:16:18Z</time>
      </trkpt>
      <trkpt lat="42.88145" lon="0.26329">
        <ele>2299</ele>
        <time>2016-04-10T11:16:29Z</time>
      </trkpt>
      <trkpt lat="42.88138" lon="0.26328">
        <ele>2302</ele>
        <time>2016-04-10T11:16:47Z</time>
      </trkpt>
      <trkpt lat="42.88126" lon="0.2634">
        <ele>2304</ele>
        <time>2016-04-10T11:17:10Z</time>
      </trkpt>
      <trkpt lat="42.88124" lon="0.26348">
        <ele>2305</ele>
        <time>2016-04-10T11:17:16Z</time>
      </trkpt>
      <trkpt lat="42.88123" lon="0.26358">
        <ele>2307</ele>
        <time>2016-04-10T11:17:34Z</time>
      </trkpt>
      <trkpt lat="42.88117" lon="0.26365">
        <ele>2309</ele>
        <time>2016-04-10T11:17:58Z</time>
      </trkpt>
      <trkpt lat="42.88107" lon="0.26357">
        <ele>2311</ele>
        <time>2016-04-10T11:18:27Z</time>
      </trkpt>
      <trkpt lat="42.881" lon="0.26348">
        <ele>2313</ele>
        <time>2016-04-10T11:18:35Z</time>
      </trkpt>
      <trkpt lat="42.88099" lon="0.26335">
        <ele>2314</ele>
        <time>2016-04-10T11:18:48Z</time>
      </trkpt>
      <trkpt lat="42.88108" lon="0.263">
        <ele>2321</ele>
        <time>2016-04-10T11:19:29Z</time>
      </trkpt>
      <trkpt lat="42.88112" lon="0.26297">
        <ele>2324</ele>
        <time>2016-04-10T11:19:41Z</time>
      </trkpt>
      <trkpt lat="42.88117" lon="0.26286">
        <ele>2325</ele>
        <time>2016-04-10T11:20:04Z</time>
      </trkpt>
      <trkpt lat="42.88121" lon="0.2628">
        <ele>2326</ele>
        <time>2016-04-10T11:20:19Z</time>
      </trkpt>
      <trkpt lat="42.88133" lon="0.26251">
        <ele>2333</ele>
        <time>2016-04-10T11:21:08Z</time>
      </trkpt>
      <trkpt lat="42.88124" lon="0.26239">
        <ele>2338</ele>
        <time>2016-04-10T11:22:22Z</time>
      </trkpt>
      <trkpt lat="42.8813" lon="0.26236">
        <ele>2341</ele>
        <time>2016-04-10T11:23:51Z</time>
      </trkpt>
      <trkpt lat="42.88135" lon="0.26239">
        <ele>2345</ele>
        <time>2016-04-10T11:32:18Z</time>
      </trkpt>
      <trkpt lat="42.88132" lon="0.26249">
        <ele>2346</ele>
        <time>2016-04-10T11:38:57Z</time>
      </trkpt>
      <trkpt lat="42.88121" lon="0.26261">
        <ele>2346</ele>
        <time>2016-04-10T11:39:01Z</time>
      </trkpt>
      <trkpt lat="42.88111" lon="0.26275">
        <ele>2341</ele>
        <time>2016-04-10T11:39:07Z</time>
      </trkpt>
      <trkpt lat="42.88098" lon="0.26301">
        <ele>2337</ele>
        <time>2016-04-10T11:39:14Z</time>
      </trkpt>
      <trkpt lat="42.88105" lon="0.26308">
        <ele>2332</ele>
        <time>2016-04-10T11:39:32Z</time>
      </trkpt>
      <trkpt lat="42.88103" lon="0.26331">
        <ele>2325</ele>
        <time>2016-04-10T11:39:50Z</time>
      </trkpt>
      <trkpt lat="42.88111" lon="0.2634">
        <ele>2320</ele>
        <time>2016-04-10T11:39:58Z</time>
      </trkpt>
      <trkpt lat="42.88115" lon="0.26333">
        <ele>2312</ele>
        <time>2016-04-10T11:40:09Z</time>
      </trkpt>
      <trkpt lat="42.88123" lon="0.26322">
        <ele>2310</ele>
        <time>2016-04-10T11:40:17Z</time>
      </trkpt>
      <trkpt lat="42.88127" lon="0.26325">
        <ele>2308</ele>
        <time>2016-04-10T11:40:19Z</time>
      </trkpt>
      <trkpt lat="42.8813" lon="0.2633">
        <ele>2307</ele>
        <time>2016-04-10T11:40:20Z</time>
      </trkpt>
      <trkpt lat="42.88131" lon="0.26339">
        <ele>2305</ele>
        <time>2016-04-10T11:40:22Z</time>
      </trkpt>
      <trkpt lat="42.88138" lon="0.26348">
        <ele>2300</ele>
        <time>2016-04-10T11:40:31Z</time>
      </trkpt>
      <trkpt lat="42.88138" lon="0.2636">
        <ele>2296</ele>
        <time>2016-04-10T11:40:52Z</time>
      </trkpt>
      <trkpt lat="42.88137" lon="0.26367">
        <ele>2296</ele>
        <time>2016-04-10T11:40:53Z</time>
      </trkpt>
      <trkpt lat="42.88135" lon="0.26382">
        <ele>2294</ele>
        <time>2016-04-10T11:40:55Z</time>
      </trkpt>
      <trkpt lat="42.88137" lon="0.2639">
        <ele>2292</ele>
        <time>2016-04-10T11:41:01Z</time>
      </trkpt>
      <trkpt lat="42.8815" lon="0.26394">
        <ele>2288</ele>
        <time>2016-04-10T11:41:05Z</time>
      </trkpt>
      <trkpt lat="42.88154" lon="0.26391">
        <ele>2286</ele>
        <time>2016-04-10T11:41:07Z</time>
      </trkpt>
      <trkpt lat="42.88166" lon="0.26373">
        <ele>2277</ele>
        <time>2016-04-10T11:41:20Z</time>
      </trkpt>
      <trkpt lat="42.88191" lon="0.26365">
        <ele>2271</ele>
        <time>2016-04-10T11:41:30Z</time>
      </trkpt>
      <trkpt lat="42.88195" lon="0.26373">
        <ele>2270</ele>
        <time>2016-04-10T11:41:32Z</time>
      </trkpt>
      <trkpt lat="42.88206" lon="0.26396">
        <ele>2263</ele>
        <time>2016-04-10T11:41:38Z</time>
      </trkpt>
      <trkpt lat="42.88204" lon="0.26404">
        <ele>2261</ele>
        <time>2016-04-10T11:41:40Z</time>
      </trkpt>
      <trkpt lat="42.88201" lon="0.26412">
        <ele>2249</ele>
        <time>2016-04-10T11:43:00Z</time>
      </trkpt>
      <trkpt lat="42.88194" lon="0.26423">
        <ele>2248</ele>
        <time>2016-04-10T11:43:05Z</time>
      </trkpt>
      <trkpt lat="42.88196" lon="0.26431">
        <ele>2245</ele>
        <time>2016-04-10T11:43:10Z</time>
      </trkpt>
      <trkpt lat="42.88201" lon="0.26434">
        <ele>2244</ele>
        <time>2016-04-10T11:43:12Z</time>
      </trkpt>
      <trkpt lat="42.88199" lon="0.26448">
        <ele>2238</ele>
        <time>2016-04-10T11:43:27Z</time>
      </trkpt>
      <trkpt lat="42.88204" lon="0.2648">
        <ele>2230</ele>
        <time>2016-04-10T11:43:35Z</time>
      </trkpt>
      <trkpt lat="42.88212" lon="0.2652">
        <ele>2208</ele>
        <time>2016-04-10T11:43:58Z</time>
      </trkpt>
      <trkpt lat="42.88208" lon="0.26537">
        <ele>2200</ele>
        <time>2016-04-10T11:44:29Z</time>
      </trkpt>
      <trkpt lat="42.88214" lon="0.26568">
        <ele>2191</ele>
        <time>2016-04-10T11:44:35Z</time>
      </trkpt>
      <trkpt lat="42.88208" lon="0.26576">
        <ele>2189</ele>
        <time>2016-04-10T11:44:37Z</time>
      </trkpt>
      <trkpt lat="42.88202" lon="0.26582">
        <ele>2186</ele>
        <time>2016-04-10T11:44:39Z</time>
      </trkpt>
      <trkpt lat="42.88198" lon="0.26591">
        <ele>2184</ele>
        <time>2016-04-10T11:44:41Z</time>
      </trkpt>
      <trkpt lat="42.88201" lon="0.26602">
        <ele>2183</ele>
        <time>2016-04-10T11:44:42Z</time>
      </trkpt>
      <trkpt lat="42.88201" lon="0.26609">
        <ele>2181</ele>
        <time>2016-04-10T11:44:43Z</time>
      </trkpt>
      <trkpt lat="42.88206" lon="0.26614">
        <ele>2179</ele>
        <time>2016-04-10T11:44:44Z</time>
      </trkpt>
      <trkpt lat="42.88214" lon="0.26687">
        <ele>2162</ele>
        <time>2016-04-10T11:44:52Z</time>
      </trkpt>
      <trkpt lat="42.88209" lon="0.26701">
        <ele>2159</ele>
        <time>2016-04-10T11:44:53Z</time>
      </trkpt>
      <trkpt lat="42.88215" lon="0.26745">
        <ele>2150</ele>
        <time>2016-04-10T11:44:58Z</time>
      </trkpt>
      <trkpt lat="42.88211" lon="0.26753">
        <ele>2149</ele>
        <time>2016-04-10T11:44:59Z</time>
      </trkpt>
      <trkpt lat="42.8822" lon="0.26782">
        <ele>2144</ele>
        <time>2016-04-10T11:45:05Z</time>
      </trkpt>
      <trkpt lat="42.88216" lon="0.26792">
        <ele>2142</ele>
        <time>2016-04-10T11:45:07Z</time>
      </trkpt>
      <trkpt lat="42.88215" lon="0.26799">
        <ele>2141</ele>
        <time>2016-04-10T11:45:09Z</time>
      </trkpt>
      <trkpt lat="42.88221" lon="0.26811">
        <ele>2136</ele>
        <time>2016-04-10T11:45:29Z</time>
      </trkpt>
      <trkpt lat="42.88226" lon="0.26822">
        <ele>2136</ele>
        <time>2016-04-10T11:45:36Z</time>
      </trkpt>
      <trkpt lat="42.88264" lon="0.26856">
        <ele>2133</ele>
        <time>2016-04-10T11:46:07Z</time>
      </trkpt>
      <trkpt lat="42.88297" lon="0.26885">
        <ele>2131</ele>
        <time>2016-04-10T11:46:24Z</time>
      </trkpt>
      <trkpt lat="42.88302" lon="0.26901">
        <ele>2130</ele>
        <time>2016-04-10T11:46:26Z</time>
      </trkpt>
      <trkpt lat="42.88304" lon="0.26903">
        <ele>2130</ele>
        <time>2016-04-10T11:46:27Z</time>
      </trkpt>
      <trkpt lat="42.88307" lon="0.26897">
        <ele>2129</ele>
        <time>2016-04-10T11:46:43Z</time>
      </trkpt>
      <trkpt lat="42.88316" lon="0.2689">
        <ele>2129</ele>
        <time>2016-04-10T11:46:56Z</time>
      </trkpt>
      <trkpt lat="42.8832" lon="0.26886">
        <ele>2129</ele>
        <time>2016-04-10T11:47:02Z</time>
      </trkpt>
      <trkpt lat="42.88329" lon="0.26883">
        <ele>2130</ele>
        <time>2016-04-10T11:47:27Z</time>
      </trkpt>
      <trkpt lat="42.88341" lon="0.26883">
        <ele>2131</ele>
        <time>2016-04-10T11:47:36Z</time>
      </trkpt>
      <trkpt lat="42.88344" lon="0.26883">
        <ele>2130</ele>
        <time>2016-04-10T11:47:37Z</time>
      </trkpt>
      <trkpt lat="42.88347" lon="0.26884">
        <ele>2130</ele>
        <time>2016-04-10T11:47:44Z</time>
      </trkpt>
      <trkpt lat="42.88349" lon="0.26886">
        <ele>2130</ele>
        <time>2016-04-10T11:47:50Z</time>
      </trkpt>
      <trkpt lat="42.88371" lon="0.26887">
        <ele>2130</ele>
        <time>2016-04-10T11:48:14Z</time>
      </trkpt>
      <trkpt lat="42.88375" lon="0.26889">
        <ele>2129</ele>
        <time>2016-04-10T11:48:18Z</time>
      </trkpt>
      <trkpt lat="42.88381" lon="0.26887">
        <ele>2133</ele>
        <time>2016-04-10T11:49:46Z</time>
      </trkpt>
      <trkpt lat="42.88392" lon="0.26896">
        <ele>2135</ele>
        <time>2016-04-10T11:49:50Z</time>
      </trkpt>
      <trkpt lat="42.884" lon="0.26904">
        <ele>2135</ele>
        <time>2016-04-10T11:49:52Z</time>
      </trkpt>
      <trkpt lat="42.88404" lon="0.26904">
        <ele>2135</ele>
        <time>2016-04-10T11:49:53Z</time>
      </trkpt>
      <trkpt lat="42.88407" lon="0.26899">
        <ele>2135</ele>
        <time>2016-04-10T11:50:02Z</time>
      </trkpt>
      <trkpt lat="42.88413" lon="0.26895">
        <ele>2136</ele>
        <time>2016-04-10T11:50:14Z</time>
      </trkpt>
      <trkpt lat="42.88418" lon="0.26893">
        <ele>2136</ele>
        <time>2016-04-10T11:50:18Z</time>
      </trkpt>
      <trkpt lat="42.88433" lon="0.26902">
        <ele>2136</ele>
        <time>2016-04-10T11:50:30Z</time>
      </trkpt>
      <trkpt lat="42.88501" lon="0.26892">
        <ele>2133</ele>
        <time>2016-04-10T11:50:49Z</time>
      </trkpt>
      <trkpt lat="42.885" lon="0.26896">
        <ele>2132</ele>
        <time>2016-04-10T11:52:28Z</time>
      </trkpt>
      <trkpt lat="42.88503" lon="0.26902">
        <ele>2131</ele>
        <time>2016-04-10T11:52:53Z</time>
      </trkpt>
      <trkpt lat="42.88501" lon="0.2691">
        <ele>2130</ele>
        <time>2016-04-10T11:52:55Z</time>
      </trkpt>
      <trkpt lat="42.885" lon="0.26914">
        <ele>2130</ele>
        <time>2016-04-10T11:52:56Z</time>
      </trkpt>
      <trkpt lat="42.88501" lon="0.26918">
        <ele>2129</ele>
        <time>2016-04-10T11:52:57Z</time>
      </trkpt>
      <trkpt lat="42.88508" lon="0.26922">
        <ele>2128</ele>
        <time>2016-04-10T11:52:59Z</time>
      </trkpt>
      <trkpt lat="42.88533" lon="0.26924">
        <ele>2124</ele>
        <time>2016-04-10T11:53:02Z</time>
      </trkpt>
      <trkpt lat="42.88538" lon="0.26931">
        <ele>2123</ele>
        <time>2016-04-10T11:53:03Z</time>
      </trkpt>
      <trkpt lat="42.8855" lon="0.26938">
        <ele>2121</ele>
        <time>2016-04-10T11:53:04Z</time>
      </trkpt>
      <trkpt lat="42.88556" lon="0.26936">
        <ele>2120</ele>
        <time>2016-04-10T11:53:06Z</time>
      </trkpt>
      <trkpt lat="42.88565" lon="0.26929">
        <ele>2119</ele>
        <time>2016-04-10T11:53:08Z</time>
      </trkpt>
      <trkpt lat="42.88565" lon="0.2691">
        <ele>2117</ele>
        <time>2016-04-10T11:53:09Z</time>
      </trkpt>
      <trkpt lat="42.88568" lon="0.26902">
        <ele>2116</ele>
        <time>2016-04-10T11:53:10Z</time>
      </trkpt>
      <trkpt lat="42.88575" lon="0.26895">
        <ele>2115</ele>
        <time>2016-04-10T11:53:11Z</time>
      </trkpt>
      <trkpt lat="42.88582" lon="0.26894">
        <ele>2114</ele>
        <time>2016-04-10T11:53:13Z</time>
      </trkpt>
      <trkpt lat="42.88586" lon="0.26897">
        <ele>2113</ele>
        <time>2016-04-10T11:53:14Z</time>
      </trkpt>
      <trkpt lat="42.88588" lon="0.26901">
        <ele>2111</ele>
        <time>2016-04-10T11:53:16Z</time>
      </trkpt>
      <trkpt lat="42.8859" lon="0.26901">
        <ele>2110</ele>
        <time>2016-04-10T11:53:18Z</time>
      </trkpt>
      <trkpt lat="42.88593" lon="0.269">
        <ele>2109</ele>
        <time>2016-04-10T11:53:19Z</time>
      </trkpt>
      <trkpt lat="42.886" lon="0.26902">
        <ele>2107</ele>
        <time>2016-04-10T11:53:21Z</time>
      </trkpt>
      <trkpt lat="42.88607" lon="0.26911">
        <ele>2102</ele>
        <time>2016-04-10T11:53:37Z</time>
      </trkpt>
      <trkpt lat="42.88614" lon="0.26932">
        <ele>2101</ele>
        <time>2016-04-10T11:53:40Z</time>
      </trkpt>
      <trkpt lat="42.88635" lon="0.26949">
        <ele>2096</ele>
        <time>2016-04-10T11:53:51Z</time>
      </trkpt>
      <trkpt lat="42.88642" lon="0.26947">
        <ele>2093</ele>
        <time>2016-04-10T11:54:30Z</time>
      </trkpt>
      <trkpt lat="42.88647" lon="0.26947">
        <ele>2093</ele>
        <time>2016-04-10T11:54:32Z</time>
      </trkpt>
      <trkpt lat="42.88649" lon="0.26945">
        <ele>2093</ele>
        <time>2016-04-10T11:54:33Z</time>
      </trkpt>
      <trkpt lat="42.88649" lon="0.2694">
        <ele>2092</ele>
        <time>2016-04-10T11:54:34Z</time>
      </trkpt>
      <trkpt lat="42.88643" lon="0.26924">
        <ele>2090</ele>
        <time>2016-04-10T11:54:37Z</time>
      </trkpt>
      <trkpt lat="42.88648" lon="0.26926">
        <ele>2089</ele>
        <time>2016-04-10T11:54:38Z</time>
      </trkpt>
      <trkpt lat="42.88671" lon="0.2694">
        <ele>2084</ele>
        <time>2016-04-10T11:54:44Z</time>
      </trkpt>
      <trkpt lat="42.88675" lon="0.26934">
        <ele>2083</ele>
        <time>2016-04-10T11:54:45Z</time>
      </trkpt>
      <trkpt lat="42.88679" lon="0.26934">
        <ele>2082</ele>
        <time>2016-04-10T11:54:46Z</time>
      </trkpt>
      <trkpt lat="42.88689" lon="0.26936">
        <ele>2078</ele>
        <time>2016-04-10T11:54:49Z</time>
      </trkpt>
      <trkpt lat="42.88712" lon="0.26948">
        <ele>2073</ele>
        <time>2016-04-10T11:54:54Z</time>
      </trkpt>
      <trkpt lat="42.88729" lon="0.26943">
        <ele>2069</ele>
        <time>2016-04-10T11:54:58Z</time>
      </trkpt>
      <trkpt lat="42.88727" lon="0.26937">
        <ele>2068</ele>
        <time>2016-04-10T11:54:59Z</time>
      </trkpt>
      <trkpt lat="42.88736" lon="0.26886">
        <ele>2055</ele>
        <time>2016-04-10T11:55:07Z</time>
      </trkpt>
      <trkpt lat="42.88737" lon="0.26881">
        <ele>2043</ele>
        <time>2016-04-10T11:55:30Z</time>
      </trkpt>
      <trkpt lat="42.88736" lon="0.26876">
        <ele>2043</ele>
        <time>2016-04-10T11:55:31Z</time>
      </trkpt>
      <trkpt lat="42.88736" lon="0.26866">
        <ele>2041</ele>
        <time>2016-04-10T11:55:37Z</time>
      </trkpt>
      <trkpt lat="42.88735" lon="0.26857">
        <ele>2040</ele>
        <time>2016-04-10T11:56:00Z</time>
      </trkpt>
      <trkpt lat="42.88746" lon="0.26842">
        <ele>2039</ele>
        <time>2016-04-10T11:56:03Z</time>
      </trkpt>
      <trkpt lat="42.88756" lon="0.26829">
        <ele>2037</ele>
        <time>2016-04-10T11:56:05Z</time>
      </trkpt>
      <trkpt lat="42.88769" lon="0.26794">
        <ele>2032</ele>
        <time>2016-04-10T11:56:11Z</time>
      </trkpt>
      <trkpt lat="42.88774" lon="0.26792">
        <ele>2031</ele>
        <time>2016-04-10T11:56:12Z</time>
      </trkpt>
      <trkpt lat="42.88777" lon="0.26803">
        <ele>2030</ele>
        <time>2016-04-10T11:56:13Z</time>
      </trkpt>
      <trkpt lat="42.88781" lon="0.26815">
        <ele>2027</ele>
        <time>2016-04-10T11:56:15Z</time>
      </trkpt>
      <trkpt lat="42.88785" lon="0.26814">
        <ele>2026</ele>
        <time>2016-04-10T11:56:16Z</time>
      </trkpt>
      <trkpt lat="42.88789" lon="0.26812">
        <ele>2025</ele>
        <time>2016-04-10T11:56:17Z</time>
      </trkpt>
      <trkpt lat="42.88799" lon="0.26813">
        <ele>2022</ele>
        <time>2016-04-10T11:56:19Z</time>
      </trkpt>
      <trkpt lat="42.888" lon="0.26824">
        <ele>2021</ele>
        <time>2016-04-10T11:56:20Z</time>
      </trkpt>
      <trkpt lat="42.88804" lon="0.26838">
        <ele>2018</ele>
        <time>2016-04-10T11:56:22Z</time>
      </trkpt>
      <trkpt lat="42.88808" lon="0.26838">
        <ele>2017</ele>
        <time>2016-04-10T11:56:23Z</time>
      </trkpt>
      <trkpt lat="42.8881" lon="0.26832">
        <ele>2016</ele>
        <time>2016-04-10T11:56:24Z</time>
      </trkpt>
      <trkpt lat="42.88821" lon="0.26757">
        <ele>2003</ele>
        <time>2016-04-10T11:56:36Z</time>
      </trkpt>
      <trkpt lat="42.8883" lon="0.26756">
        <ele>2002</ele>
        <time>2016-04-10T11:56:37Z</time>
      </trkpt>
      <trkpt lat="42.88834" lon="0.26767">
        <ele>2000</ele>
        <time>2016-04-10T11:56:40Z</time>
      </trkpt>
      <trkpt lat="42.88849" lon="0.26787">
        <ele>1995</ele>
        <time>2016-04-10T11:56:44Z</time>
      </trkpt>
      <trkpt lat="42.88852" lon="0.2678">
        <ele>1993</ele>
        <time>2016-04-10T11:56:45Z</time>
      </trkpt>
      <trkpt lat="42.88858" lon="0.26778">
        <ele>1991</ele>
        <time>2016-04-10T11:56:46Z</time>
      </trkpt>
      <trkpt lat="42.88863" lon="0.26781">
        <ele>1990</ele>
        <time>2016-04-10T11:56:47Z</time>
      </trkpt>
      <trkpt lat="42.88863" lon="0.26792">
        <ele>1987</ele>
        <time>2016-04-10T11:56:48Z</time>
      </trkpt>
      <trkpt lat="42.88872" lon="0.2681">
        <ele>1982</ele>
        <time>2016-04-10T11:56:52Z</time>
      </trkpt>
      <trkpt lat="42.88875" lon="0.26806">
        <ele>1980</ele>
        <time>2016-04-10T11:56:54Z</time>
      </trkpt>
      <trkpt lat="42.88876" lon="0.26798">
        <ele>1978</ele>
        <time>2016-04-10T11:56:56Z</time>
      </trkpt>
      <trkpt lat="42.88883" lon="0.26772">
        <ele>1972</ele>
        <time>2016-04-10T11:57:03Z</time>
      </trkpt>
      <trkpt lat="42.88886" lon="0.2677">
        <ele>1971</ele>
        <time>2016-04-10T11:57:04Z</time>
      </trkpt>
      <trkpt lat="42.88889" lon="0.26771">
        <ele>1971</ele>
        <time>2016-04-10T11:57:05Z</time>
      </trkpt>
      <trkpt lat="42.88891" lon="0.26774">
        <ele>1970</ele>
        <time>2016-04-10T11:57:06Z</time>
      </trkpt>
      <trkpt lat="42.88895" lon="0.26788">
        <ele>1968</ele>
        <time>2016-04-10T11:57:09Z</time>
      </trkpt>
      <trkpt lat="42.88895" lon="0.26794">
        <ele>1966</ele>
        <time>2016-04-10T11:57:16Z</time>
      </trkpt>
      <trkpt lat="42.88901" lon="0.26787">
        <ele>1964</ele>
        <time>2016-04-10T11:59:46Z</time>
      </trkpt>
      <trkpt lat="42.889" lon="0.26777">
        <ele>1964</ele>
        <time>2016-04-10T11:59:48Z</time>
      </trkpt>
      <trkpt lat="42.88894" lon="0.2676">
        <ele>1961</ele>
        <time>2016-04-10T11:59:58Z</time>
      </trkpt>
      <trkpt lat="42.88902" lon="0.26756">
        <ele>1959</ele>
        <time>2016-04-10T12:00:24Z</time>
      </trkpt>
      <trkpt lat="42.88908" lon="0.26752">
        <ele>1958</ele>
        <time>2016-04-10T12:00:26Z</time>
      </trkpt>
      <trkpt lat="42.88918" lon="0.26749">
        <ele>1956</ele>
        <time>2016-04-10T12:00:28Z</time>
      </trkpt>
      <trkpt lat="42.88925" lon="0.26755">
        <ele>1954</ele>
        <time>2016-04-10T12:00:30Z</time>
      </trkpt>
      <trkpt lat="42.88931" lon="0.26768">
        <ele>1953</ele>
        <time>2016-04-10T12:00:31Z</time>
      </trkpt>
      <trkpt lat="42.89138" lon="0.26911">
        <ele>1882</ele>
        <time>2016-04-10T12:01:01Z</time>
      </trkpt>
      <trkpt lat="42.89155" lon="0.26932">
        <ele>1877</ele>
        <time>2016-04-10T12:01:05Z</time>
      </trkpt>
      <trkpt lat="42.89265" lon="0.26989">
        <ele>1845</ele>
        <time>2016-04-10T12:01:23Z</time>
      </trkpt>
      <trkpt lat="42.89323" lon="0.27121">
        <ele>1830</ele>
        <time>2016-04-10T12:01:39Z</time>
      </trkpt>
      <trkpt lat="42.89337" lon="0.27127">
        <ele>1828</ele>
        <time>2016-04-10T12:01:41Z</time>
      </trkpt>
      <trkpt lat="42.89348" lon="0.27145">
        <ele>1825</ele>
        <time>2016-04-10T12:01:44Z</time>
      </trkpt>
      <trkpt lat="42.8935" lon="0.27162">
        <ele>1822</ele>
        <time>2016-04-10T12:03:05Z</time>
      </trkpt>
      <trkpt lat="42.89354" lon="0.27166">
        <ele>1823</ele>
        <time>2016-04-10T12:03:15Z</time>
      </trkpt>
      <trkpt lat="42.89358" lon="0.27168">
        <ele>1824</ele>
        <time>2016-04-10T12:03:25Z</time>
      </trkpt>
      <trkpt lat="42.89364" lon="0.27166">
        <ele>1826</ele>
        <time>2016-04-10T12:04:12Z</time>
      </trkpt>
      <trkpt lat="42.89374" lon="0.27163">
        <ele>1828</ele>
        <time>2016-04-10T12:04:47Z</time>
      </trkpt>
      <trkpt lat="42.89378" lon="0.27161">
        <ele>1828</ele>
        <time>2016-04-10T12:04:49Z</time>
      </trkpt>
      <trkpt lat="42.89385" lon="0.27157">
        <ele>1827</ele>
        <time>2016-04-10T12:04:58Z</time>
      </trkpt>
      <trkpt lat="42.89389" lon="0.27157">
        <ele>1827</ele>
        <time>2016-04-10T12:05:14Z</time>
      </trkpt>
      <trkpt lat="42.89487" lon="0.27127">
        <ele>1811</ele>
        <time>2016-04-10T12:05:40Z</time>
      </trkpt>
      <trkpt lat="42.89503" lon="0.27144">
        <ele>1807</ele>
        <time>2016-04-10T12:05:42Z</time>
      </trkpt>
      <trkpt lat="42.89506" lon="0.27156">
        <ele>1806</ele>
        <time>2016-04-10T12:05:43Z</time>
      </trkpt>
      <trkpt lat="42.89573" lon="0.27219">
        <ele>1786</ele>
        <time>2016-04-10T12:06:08Z</time>
      </trkpt>
      <trkpt lat="42.89579" lon="0.27216">
        <ele>1782</ele>
        <time>2016-04-10T12:06:34Z</time>
      </trkpt>
      <trkpt lat="42.89599" lon="0.27209">
        <ele>1776</ele>
        <time>2016-04-10T12:06:41Z</time>
      </trkpt>
      <trkpt lat="42.89603" lon="0.27203">
        <ele>1773</ele>
        <time>2016-04-10T12:06:52Z</time>
      </trkpt>
      <trkpt lat="42.89606" lon="0.27202">
        <ele>1771</ele>
        <time>2016-04-10T12:06:56Z</time>
      </trkpt>
      <trkpt lat="42.89626" lon="0.27146">
        <ele>1760</ele>
        <time>2016-04-10T12:07:19Z</time>
      </trkpt>
      <trkpt lat="42.89629" lon="0.27146">
        <ele>1760</ele>
        <time>2016-04-10T12:07:20Z</time>
      </trkpt>
      <trkpt lat="42.89633" lon="0.27147">
        <ele>1759</ele>
        <time>2016-04-10T12:07:21Z</time>
      </trkpt>
      <trkpt lat="42.89642" lon="0.27157">
        <ele>1755</ele>
        <time>2016-04-10T12:07:24Z</time>
      </trkpt>
      <trkpt lat="42.89645" lon="0.27158">
        <ele>1754</ele>
        <time>2016-04-10T12:07:25Z</time>
      </trkpt>
      <trkpt lat="42.89651" lon="0.27154">
        <ele>1752</ele>
        <time>2016-04-10T12:07:26Z</time>
      </trkpt>
      <trkpt lat="42.89656" lon="0.27155">
        <ele>1750</ele>
        <time>2016-04-10T12:07:27Z</time>
      </trkpt>
      <trkpt lat="42.89791" lon="0.27287">
        <ele>1720</ele>
        <time>2016-04-10T12:07:57Z</time>
      </trkpt>
      <trkpt lat="42.89793" lon="0.27288">
        <ele>1720</ele>
        <time>2016-04-10T12:07:58Z</time>
      </trkpt>
      <trkpt lat="42.89834" lon="0.2733">
        <ele>1717</ele>
        <time>2016-04-10T12:08:17Z</time>
      </trkpt>
      <trkpt lat="42.89837" lon="0.27333">
        <ele>1717</ele>
        <time>2016-04-10T12:08:18Z</time>
      </trkpt>
      <trkpt lat="42.89843" lon="0.27341">
        <ele>1717</ele>
        <time>2016-04-10T12:08:21Z</time>
      </trkpt>
      <trkpt lat="42.89876" lon="0.27365">
        <ele>1713</ele>
        <time>2016-04-10T12:08:39Z</time>
      </trkpt>
      <trkpt lat="42.89898" lon="0.27383">
        <ele>1712</ele>
        <time>2016-04-10T12:08:58Z</time>
      </trkpt>
      <trkpt lat="42.89906" lon="0.2739">
        <ele>1713</ele>
        <time>2016-04-10T12:09:08Z</time>
      </trkpt>
      <trkpt lat="42.89933" lon="0.27414">
        <ele>1711</ele>
        <time>2016-04-10T12:09:36Z</time>
      </trkpt>
      <trkpt lat="42.89939" lon="0.27414">
        <ele>1710</ele>
        <time>2016-04-10T12:09:40Z</time>
      </trkpt>
      <trkpt lat="42.89956" lon="0.27418">
        <ele>1710</ele>
        <time>2016-04-10T12:10:06Z</time>
      </trkpt>
      <trkpt lat="42.89962" lon="0.27424">
        <ele>1710</ele>
        <time>2016-04-10T12:10:10Z</time>
      </trkpt>
      <trkpt lat="42.89985" lon="0.27436">
        <ele>1708</ele>
        <time>2016-04-10T12:10:24Z</time>
      </trkpt>
      <trkpt lat="42.89989" lon="0.27441">
        <ele>1706</ele>
        <time>2016-04-10T12:10:51Z</time>
      </trkpt>
      <trkpt lat="42.89993" lon="0.2744">
        <ele>1705</ele>
        <time>2016-04-10T12:10:54Z</time>
      </trkpt>
      <trkpt lat="42.90008" lon="0.27434">
        <ele>1703</ele>
        <time>2016-04-10T12:11:08Z</time>
      </trkpt>
      <trkpt lat="42.90065" lon="0.27379">
        <ele>1696</ele>
        <time>2016-04-10T12:11:38Z</time>
      </trkpt>
      <trkpt lat="42.90093" lon="0.2734">
        <ele>1689</ele>
        <time>2016-04-10T12:11:48Z</time>
      </trkpt>
      <trkpt lat="42.90102" lon="0.27339">
        <ele>1687</ele>
        <time>2016-04-10T12:11:54Z</time>
      </trkpt>
      <trkpt lat="42.9012" lon="0.27333">
        <ele>1685</ele>
        <time>2016-04-10T12:11:59Z</time>
      </trkpt>
      <trkpt lat="42.90125" lon="0.27333">
        <ele>1684</ele>
        <time>2016-04-10T12:12:00Z</time>
      </trkpt>
      <trkpt lat="42.90133" lon="0.27344">
        <ele>1682</ele>
        <time>2016-04-10T12:12:02Z</time>
      </trkpt>
      <trkpt lat="42.90264" lon="0.27438">
        <ele>1648</ele>
        <time>2016-04-10T12:12:27Z</time>
      </trkpt>
      <trkpt lat="42.90268" lon="0.27432">
        <ele>1647</ele>
        <time>2016-04-10T12:12:28Z</time>
      </trkpt>
      <trkpt lat="42.90322" lon="0.2741">
        <ele>1635</ele>
        <time>2016-04-10T12:12:43Z</time>
      </trkpt>
      <trkpt lat="42.90336" lon="0.27422">
        <ele>1631</ele>
        <time>2016-04-10T12:12:46Z</time>
      </trkpt>
      <trkpt lat="42.90354" lon="0.27468">
        <ele>1621</ele>
        <time>2016-04-10T12:12:52Z</time>
      </trkpt>
      <trkpt lat="42.90355" lon="0.27472">
        <ele>1620</ele>
        <time>2016-04-10T12:12:53Z</time>
      </trkpt>
      <trkpt lat="42.90352" lon="0.27487">
        <ele>1617</ele>
        <time>2016-04-10T12:12:56Z</time>
      </trkpt>
      <trkpt lat="42.90353" lon="0.27494">
        <ele>1611</ele>
        <time>2016-04-10T12:13:23Z</time>
      </trkpt>
      <trkpt lat="42.90356" lon="0.27497">
        <ele>1611</ele>
        <time>2016-04-10T12:13:24Z</time>
      </trkpt>
      <trkpt lat="42.90364" lon="0.27501">
        <ele>1611</ele>
        <time>2016-04-10T12:13:26Z</time>
      </trkpt>
      <trkpt lat="42.90369" lon="0.27501">
        <ele>1611</ele>
        <time>2016-04-10T12:13:27Z</time>
      </trkpt>
      <trkpt lat="42.90383" lon="0.27496">
        <ele>1610</ele>
        <time>2016-04-10T12:13:30Z</time>
      </trkpt>
      <trkpt lat="42.90385" lon="0.27502">
        <ele>1609</ele>
        <time>2016-04-10T12:13:31Z</time>
      </trkpt>
      <trkpt lat="42.904" lon="0.27558">
        <ele>1600</ele>
        <time>2016-04-10T12:13:41Z</time>
      </trkpt>
      <trkpt lat="42.90404" lon="0.27553">
        <ele>1597</ele>
        <time>2016-04-10T12:13:49Z</time>
      </trkpt>
      <trkpt lat="42.90406" lon="0.27549">
        <ele>1596</ele>
        <time>2016-04-10T12:13:50Z</time>
      </trkpt>
      <trkpt lat="42.90436" lon="0.2748">
        <ele>1590</ele>
        <time>2016-04-10T12:14:10Z</time>
      </trkpt>
      <trkpt lat="42.9044" lon="0.27478">
        <ele>1590</ele>
        <time>2016-04-10T12:14:11Z</time>
      </trkpt>
      <trkpt lat="42.90455" lon="0.27494">
        <ele>1585</ele>
        <time>2016-04-10T12:14:15Z</time>
      </trkpt>
      <trkpt lat="42.90459" lon="0.27501">
        <ele>1584</ele>
        <time>2016-04-10T12:14:16Z</time>
      </trkpt>
      <trkpt lat="42.90455" lon="0.27506">
        <ele>1583</ele>
        <time>2016-04-10T12:14:17Z</time>
      </trkpt>
      <trkpt lat="42.90455" lon="0.27514">
        <ele>1582</ele>
        <time>2016-04-10T12:14:18Z</time>
      </trkpt>
      <trkpt lat="42.90459" lon="0.27515">
        <ele>1581</ele>
        <time>2016-04-10T12:14:20Z</time>
      </trkpt>
      <trkpt lat="42.90462" lon="0.27519">
        <ele>1580</ele>
        <time>2016-04-10T12:14:21Z</time>
      </trkpt>
      <trkpt lat="42.90472" lon="0.27544">
        <ele>1574</ele>
        <time>2016-04-10T12:14:26Z</time>
      </trkpt>
      <trkpt lat="42.90475" lon="0.27543">
        <ele>1573</ele>
        <time>2016-04-10T12:14:27Z</time>
      </trkpt>
      <trkpt lat="42.90481" lon="0.27551">
        <ele>1570</ele>
        <time>2016-04-10T12:14:29Z</time>
      </trkpt>
      <trkpt lat="42.90489" lon="0.27552">
        <ele>1566</ele>
        <time>2016-04-10T12:14:32Z</time>
      </trkpt>
      <trkpt lat="42.90488" lon="0.27555">
        <ele>1565</ele>
        <time>2016-04-10T12:14:33Z</time>
      </trkpt>
      <trkpt lat="42.90489" lon="0.27568">
        <ele>1558</ele>
        <time>2016-04-10T12:14:42Z</time>
      </trkpt>
      <trkpt lat="42.90496" lon="0.27569">
        <ele>1556</ele>
        <time>2016-04-10T12:14:58Z</time>
      </trkpt>
      <trkpt lat="42.90511" lon="0.27587">
        <ele>1552</ele>
        <time>2016-04-10T12:15:07Z</time>
      </trkpt>
      <trkpt lat="42.90512" lon="0.27595">
        <ele>1549</ele>
        <time>2016-04-10T12:15:12Z</time>
      </trkpt>
      <trkpt lat="42.90513" lon="0.276">
        <ele>1550</ele>
        <time>2016-04-10T12:18:11Z</time>
      </trkpt>
      <trkpt lat="42.90531" lon="0.27618">
        <ele>1544</ele>
        <time>2016-04-10T12:18:31Z</time>
      </trkpt>
      <trkpt lat="42.90569" lon="0.27663">
        <ele>1532</ele>
        <time>2016-04-10T12:18:58Z</time>
      </trkpt>
      <trkpt lat="42.90569" lon="0.27667">
        <ele>1531</ele>
        <time>2016-04-10T12:19:00Z</time>
      </trkpt>
      <trkpt lat="42.90567" lon="0.27671">
        <ele>1529</ele>
        <time>2016-04-10T12:19:11Z</time>
      </trkpt>
      <trkpt lat="42.9057" lon="0.27707">
        <ele>1524</ele>
        <time>2016-04-10T12:19:43Z</time>
      </trkpt>
      <trkpt lat="42.90566" lon="0.27728">
        <ele>1520</ele>
        <time>2016-04-10T12:19:59Z</time>
      </trkpt>
      <trkpt lat="42.9057" lon="0.27732">
        <ele>1519</ele>
        <time>2016-04-10T12:20:05Z</time>
      </trkpt>
      <trkpt lat="42.90573" lon="0.27744">
        <ele>1517</ele>
        <time>2016-04-10T12:20:20Z</time>
      </trkpt>
      <trkpt lat="42.90574" lon="0.27752">
        <ele>1515</ele>
        <time>2016-04-10T12:20:27Z</time>
      </trkpt>
      <trkpt lat="42.90575" lon="0.27757">
        <ele>1511</ele>
        <time>2016-04-10T12:21:27Z</time>
      </trkpt>
      <trkpt lat="42.90575" lon="0.27767">
        <ele>1506</ele>
        <time>2016-04-10T12:21:37Z</time>
      </trkpt>
      <trkpt lat="42.90574" lon="0.27773">
        <ele>1504</ele>
        <time>2016-04-10T12:21:42Z</time>
      </trkpt>
      <trkpt lat="42.90575" lon="0.27779">
        <ele>1502</ele>
        <time>2016-04-10T12:21:47Z</time>
      </trkpt>
      <trkpt lat="42.90587" lon="0.27792">
        <ele>1497</ele>
        <time>2016-04-10T12:22:06Z</time>
      </trkpt>
      <trkpt lat="42.90592" lon="0.27794">
        <ele>1496</ele>
        <time>2016-04-10T12:22:11Z</time>
      </trkpt>
      <trkpt lat="42.90616" lon="0.27829">
        <ele>1487</ele>
        <time>2016-04-10T12:22:44Z</time>
      </trkpt>
      <trkpt lat="42.90643" lon="0.27858">
        <ele>1479</ele>
        <time>2016-04-10T12:23:18Z</time>
      </trkpt>
      <trkpt lat="42.90647" lon="0.2786">
        <ele>1478</ele>
        <time>2016-04-10T12:23:22Z</time>
      </trkpt>
      <trkpt lat="42.90662" lon="0.27859">
        <ele>1474</ele>
        <time>2016-04-10T12:23:36Z</time>
      </trkpt>
      <trkpt lat="42.90699" lon="0.27888">
        <ele>1466</ele>
        <time>2016-04-10T12:24:08Z</time>
      </trkpt>
      <trkpt lat="42.90702" lon="0.27893">
        <ele>1465</ele>
        <time>2016-04-10T12:24:12Z</time>
      </trkpt>
      <trkpt lat="42.90698" lon="0.27898">
        <ele>1465</ele>
        <time>2016-04-10T12:24:24Z</time>
      </trkpt>
      <trkpt lat="42.90701" lon="0.27903">
        <ele>1465</ele>
        <time>2016-04-10T12:25:04Z</time>
      </trkpt>
      <trkpt lat="42.90711" lon="0.27907">
        <ele>1463</ele>
        <time>2016-04-10T12:25:11Z</time>
      </trkpt>
      <trkpt lat="42.90722" lon="0.27902">
        <ele>1460</ele>
        <time>2016-04-10T12:25:23Z</time>
      </trkpt>
      <trkpt lat="42.90726" lon="0.27906">
        <ele>1459</ele>
        <time>2016-04-10T12:25:31Z</time>
      </trkpt>
      <trkpt lat="42.90735" lon="0.27911">
        <ele>1457</ele>
        <time>2016-04-10T12:25:38Z</time>
      </trkpt>
      <trkpt lat="42.90744" lon="0.27908">
        <ele>1455</ele>
        <time>2016-04-10T12:25:45Z</time>
      </trkpt>
      <trkpt lat="42.90783" lon="0.27916">
        <ele>1447</ele>
        <time>2016-04-10T12:26:13Z</time>
      </trkpt>
      <trkpt lat="42.90787" lon="0.27912">
        <ele>1446</ele>
        <time>2016-04-10T12:26:18Z</time>
      </trkpt>
      <trkpt lat="42.90791" lon="0.2791">
        <ele>1444</ele>
        <time>2016-04-10T12:26:24Z</time>
      </trkpt>
      <trkpt lat="42.90795" lon="0.27914">
        <ele>1444</ele>
        <time>2016-04-10T12:26:29Z</time>
      </trkpt>
      <trkpt lat="42.90797" lon="0.27918">
        <ele>1445</ele>
        <time>2016-04-10T12:29:49Z</time>
      </trkpt>
      <trkpt lat="42.90802" lon="0.27922">
        <ele>1445</ele>
        <time>2016-04-10T12:29:58Z</time>
      </trkpt>
      <trkpt lat="42.90806" lon="0.27925">
        <ele>1444</ele>
        <time>2016-04-10T12:30:02Z</time>
      </trkpt>
    </trkseg>
  </trk>
</gpx>